<?xml version="1.0" encoding="UTF-8" standalone="no" ?>
<gpx xmlns="http://www.topografix.com/GPX/1/1" xmlns:xsi="http://www.w3.org/2001/XMLSchema-instance" xsi:schemaLocation="http://www.topografix.com/GPX/1/1 http://www.topografix.com/GPX/1/1/gpx.xsd" version="1.1" creator="VisuGPX - https://www.visugpx.com">
  <metadata>
    <name>Col des champs</name>
    <desc><![CDATA[Un petit tour au sommet du col des champs qui comme toujours à cette époque, fin juin, devient le col des fleurs.
Des magnifiques paysages avec des superbes points de vue.]]></desc>
  </metadata>
  <trk>
    <name><![CDATA[Col des champs]]></name>
    <extensions>
      <line xmlns="http://www.topografix.com/GPX/gpx_style/0/2">
        <color>ff0000</color>
        <opacity>1</opacity>
        <width>4</width>
      </line>
    </extensions>
    <trkseg>
      <trkpt lat="44.17497" lon="6.69793">
        <ele>2086.1</ele>
        <time>2025-06-22T08:07:45Z</time>
      </trkpt>
      <trkpt lat="44.17502" lon="6.69799">
        <ele>2084.6</ele>
        <time>2025-06-22T08:11:36Z</time>
      </trkpt>
      <trkpt lat="44.17498" lon="6.69805">
        <ele>2084.2</ele>
        <time>2025-06-22T08:11:51Z</time>
      </trkpt>
      <trkpt lat="44.17495" lon="6.69809">
        <ele>2083.5</ele>
        <time>2025-06-22T08:12:15Z</time>
      </trkpt>
      <trkpt lat="44.17486" lon="6.69806">
        <ele>2084.9</ele>
        <time>2025-06-22T08:12:38Z</time>
      </trkpt>
      <trkpt lat="44.17481" lon="6.69806">
        <ele>2085.4</ele>
        <time>2025-06-22T08:12:42.000Z</time>
      </trkpt>
      <trkpt lat="44.17475" lon="6.69805">
        <ele>2085.9</ele>
        <time>2025-06-22T08:12:46Z</time>
      </trkpt>
      <trkpt lat="44.17469" lon="6.69805">
        <ele>2086</ele>
        <time>2025-06-22T08:12:53.500Z</time>
      </trkpt>
      <trkpt lat="44.17463" lon="6.69804">
        <ele>2085.9</ele>
        <time>2025-06-22T08:13:01Z</time>
      </trkpt>
      <trkpt lat="44.17458" lon="6.69802">
        <ele>2086.1</ele>
        <time>2025-06-22T08:13:06.499Z</time>
      </trkpt>
      <trkpt lat="44.17453" lon="6.698">
        <ele>2086.3</ele>
        <time>2025-06-22T08:13:12Z</time>
      </trkpt>
      <trkpt lat="44.17445" lon="6.69802">
        <ele>2085.7</ele>
        <time>2025-06-22T08:13:21Z</time>
      </trkpt>
      <trkpt lat="44.17442" lon="6.69808">
        <ele>2085.5</ele>
        <time>2025-06-22T08:13:25.499Z</time>
      </trkpt>
      <trkpt lat="44.17439" lon="6.69813">
        <ele>2085.9</ele>
        <time>2025-06-22T08:13:30Z</time>
      </trkpt>
      <trkpt lat="44.17439" lon="6.6982">
        <ele>2085.7</ele>
        <time>2025-06-22T08:13:34.500Z</time>
      </trkpt>
      <trkpt lat="44.1744" lon="6.69827">
        <ele>2085.4</ele>
        <time>2025-06-22T08:13:39Z</time>
      </trkpt>
      <trkpt lat="44.17442" lon="6.69839">
        <ele>2084.2</ele>
        <time>2025-06-22T08:13:50Z</time>
      </trkpt>
      <trkpt lat="44.17445" lon="6.69845">
        <ele>2083</ele>
        <time>2025-06-22T08:14:02.500Z</time>
      </trkpt>
      <trkpt lat="44.17448" lon="6.6985">
        <ele>2082</ele>
        <time>2025-06-22T08:14:15Z</time>
      </trkpt>
      <trkpt lat="44.17454" lon="6.69858">
        <ele>2080.1</ele>
        <time>2025-06-22T08:14:25Z</time>
      </trkpt>
      <trkpt lat="44.17459" lon="6.69862">
        <ele>2078.9</ele>
        <time>2025-06-22T08:14:30.000Z</time>
      </trkpt>
      <trkpt lat="44.17463" lon="6.69866">
        <ele>2077.8</ele>
        <time>2025-06-22T08:14:35Z</time>
      </trkpt>
      <trkpt lat="44.17467" lon="6.69869">
        <ele>2076.8</ele>
        <time>2025-06-22T08:14:40.000Z</time>
      </trkpt>
      <trkpt lat="44.17471" lon="6.69872">
        <ele>2075.9</ele>
        <time>2025-06-22T08:14:45Z</time>
      </trkpt>
      <trkpt lat="44.17475" lon="6.69875">
        <ele>2075.1</ele>
        <time>2025-06-22T08:14:51.000Z</time>
      </trkpt>
      <trkpt lat="44.17479" lon="6.69879">
        <ele>2074.3</ele>
        <time>2025-06-22T08:14:57Z</time>
      </trkpt>
      <trkpt lat="44.17486" lon="6.6988">
        <ele>2073.2</ele>
        <time>2025-06-22T08:15:12Z</time>
      </trkpt>
      <trkpt lat="44.17493" lon="6.69874">
        <ele>2072.6</ele>
        <time>2025-06-22T08:15:32Z</time>
      </trkpt>
      <trkpt lat="44.17497" lon="6.69871">
        <ele>2072.4</ele>
        <time>2025-06-22T08:15:37.500Z</time>
      </trkpt>
      <trkpt lat="44.17501" lon="6.69867">
        <ele>2072.3</ele>
        <time>2025-06-22T08:15:43Z</time>
      </trkpt>
      <trkpt lat="44.17505" lon="6.69866">
        <ele>2072.1</ele>
        <time>2025-06-22T08:15:47.500Z</time>
      </trkpt>
      <trkpt lat="44.1751" lon="6.69865">
        <ele>2071.9</ele>
        <time>2025-06-22T08:15:52Z</time>
      </trkpt>
      <trkpt lat="44.17519" lon="6.69864">
        <ele>2071.4</ele>
        <time>2025-06-22T08:16:01Z</time>
      </trkpt>
      <trkpt lat="44.17525" lon="6.69866">
        <ele>2070.8</ele>
        <time>2025-06-22T08:16:06.000Z</time>
      </trkpt>
      <trkpt lat="44.17531" lon="6.69869">
        <ele>2070.3</ele>
        <time>2025-06-22T08:16:11Z</time>
      </trkpt>
      <trkpt lat="44.17536" lon="6.69874">
        <ele>2069.6</ele>
        <time>2025-06-22T08:16:32Z</time>
      </trkpt>
      <trkpt lat="44.17538" lon="6.69885">
        <ele>2068.9</ele>
        <time>2025-06-22T08:16:58Z</time>
      </trkpt>
      <trkpt lat="44.1754" lon="6.69891">
        <ele>2068.4</ele>
        <time>2025-06-22T08:17:03.500Z</time>
      </trkpt>
      <trkpt lat="44.17541" lon="6.69898">
        <ele>2068</ele>
        <time>2025-06-22T08:17:09Z</time>
      </trkpt>
      <trkpt lat="44.17544" lon="6.69908">
        <ele>2067.4</ele>
        <time>2025-06-22T08:17:19Z</time>
      </trkpt>
      <trkpt lat="44.17547" lon="6.69914">
        <ele>2067.1</ele>
        <time>2025-06-22T08:17:24.000Z</time>
      </trkpt>
      <trkpt lat="44.17549" lon="6.6992">
        <ele>2066.7</ele>
        <time>2025-06-22T08:17:29Z</time>
      </trkpt>
      <trkpt lat="44.1755" lon="6.69932">
        <ele>2065.8</ele>
        <time>2025-06-22T08:17:43Z</time>
      </trkpt>
      <trkpt lat="44.17557" lon="6.6994">
        <ele>2065.3</ele>
        <time>2025-06-22T08:18:17Z</time>
      </trkpt>
      <trkpt lat="44.17561" lon="6.69945">
        <ele>2064.5</ele>
        <time>2025-06-22T08:18:41Z</time>
      </trkpt>
      <trkpt lat="44.1757" lon="6.69945">
        <ele>2063.9</ele>
        <time>2025-06-22T08:19:00Z</time>
      </trkpt>
      <trkpt lat="44.17576" lon="6.69951">
        <ele>2062.8</ele>
        <time>2025-06-22T08:19:33Z</time>
      </trkpt>
      <trkpt lat="44.17584" lon="6.69954">
        <ele>2062</ele>
        <time>2025-06-22T08:19:43Z</time>
      </trkpt>
      <trkpt lat="44.17588" lon="6.69959">
        <ele>2061.1</ele>
        <time>2025-06-22T08:19:51.500Z</time>
      </trkpt>
      <trkpt lat="44.17591" lon="6.69963">
        <ele>2060.3</ele>
        <time>2025-06-22T08:20:00Z</time>
      </trkpt>
      <trkpt lat="44.17595" lon="6.69967">
        <ele>2059.6</ele>
        <time>2025-06-22T08:20:04.000Z</time>
      </trkpt>
      <trkpt lat="44.17599" lon="6.69971">
        <ele>2058.9</ele>
        <time>2025-06-22T08:20:08Z</time>
      </trkpt>
      <trkpt lat="44.17603" lon="6.69975">
        <ele>2058.4</ele>
        <time>2025-06-22T08:20:12.500Z</time>
      </trkpt>
      <trkpt lat="44.17607" lon="6.69978">
        <ele>2057.9</ele>
        <time>2025-06-22T08:20:17Z</time>
      </trkpt>
      <trkpt lat="44.17612" lon="6.69982">
        <ele>2057.2</ele>
        <time>2025-06-22T08:20:25.000Z</time>
      </trkpt>
      <trkpt lat="44.17616" lon="6.69986">
        <ele>2056.7</ele>
        <time>2025-06-22T08:20:33Z</time>
      </trkpt>
      <trkpt lat="44.17621" lon="6.6999">
        <ele>2056.3</ele>
        <time>2025-06-22T08:20:37.500Z</time>
      </trkpt>
      <trkpt lat="44.17625" lon="6.69993">
        <ele>2055.9</ele>
        <time>2025-06-22T08:20:42Z</time>
      </trkpt>
      <trkpt lat="44.17629" lon="6.69996">
        <ele>2055.5</ele>
        <time>2025-06-22T08:20:46.500Z</time>
      </trkpt>
      <trkpt lat="44.17634" lon="6.69999">
        <ele>2055.2</ele>
        <time>2025-06-22T08:20:51Z</time>
      </trkpt>
      <trkpt lat="44.17638" lon="6.70001">
        <ele>2054.9</ele>
        <time>2025-06-22T08:20:55.500Z</time>
      </trkpt>
      <trkpt lat="44.17643" lon="6.70003">
        <ele>2054.5</ele>
        <time>2025-06-22T08:21:00Z</time>
      </trkpt>
      <trkpt lat="44.17651" lon="6.7">
        <ele>2054.1</ele>
        <time>2025-06-22T08:21:10Z</time>
      </trkpt>
      <trkpt lat="44.17655" lon="6.69996">
        <ele>2053.9</ele>
        <time>2025-06-22T08:21:18.000Z</time>
      </trkpt>
      <trkpt lat="44.17659" lon="6.69991">
        <ele>2053.6</ele>
        <time>2025-06-22T08:21:26Z</time>
      </trkpt>
      <trkpt lat="44.17659" lon="6.69996">
        <ele>2053.6</ele>
        <time>2025-06-22T08:22:24Z</time>
      </trkpt>
      <trkpt lat="44.17658" lon="6.70008">
        <ele>2053.3</ele>
        <time>2025-06-22T08:22:42Z</time>
      </trkpt>
      <trkpt lat="44.17661" lon="6.70013">
        <ele>2052.8</ele>
        <time>2025-06-22T08:22:48.500Z</time>
      </trkpt>
      <trkpt lat="44.17664" lon="6.70018">
        <ele>2052.5</ele>
        <time>2025-06-22T08:22:55Z</time>
      </trkpt>
      <trkpt lat="44.17668" lon="6.70028">
        <ele>2051.9</ele>
        <time>2025-06-22T08:23:13Z</time>
      </trkpt>
      <trkpt lat="44.17673" lon="6.70033">
        <ele>2051.4</ele>
        <time>2025-06-22T08:23:18.500Z</time>
      </trkpt>
      <trkpt lat="44.17678" lon="6.70037">
        <ele>2051</ele>
        <time>2025-06-22T08:23:24Z</time>
      </trkpt>
      <trkpt lat="44.17682" lon="6.70041">
        <ele>2050.7</ele>
        <time>2025-06-22T08:23:29.000Z</time>
      </trkpt>
      <trkpt lat="44.17686" lon="6.70044">
        <ele>2050.4</ele>
        <time>2025-06-22T08:23:34Z</time>
      </trkpt>
      <trkpt lat="44.17692" lon="6.70052">
        <ele>2050.1</ele>
        <time>2025-06-22T08:23:46Z</time>
      </trkpt>
      <trkpt lat="44.17696" lon="6.70056">
        <ele>2049.8</ele>
        <time>2025-06-22T08:23:51.000Z</time>
      </trkpt>
      <trkpt lat="44.177" lon="6.7006">
        <ele>2049.3</ele>
        <time>2025-06-22T08:23:56Z</time>
      </trkpt>
      <trkpt lat="44.17708" lon="6.70065">
        <ele>2048.5</ele>
        <time>2025-06-22T08:24:05Z</time>
      </trkpt>
      <trkpt lat="44.17712" lon="6.70068">
        <ele>2048.1</ele>
        <time>2025-06-22T08:24:09.500Z</time>
      </trkpt>
      <trkpt lat="44.17716" lon="6.70071">
        <ele>2047.8</ele>
        <time>2025-06-22T08:24:14Z</time>
      </trkpt>
      <trkpt lat="44.17721" lon="6.70073">
        <ele>2047.5</ele>
        <time>2025-06-22T08:24:18.500Z</time>
      </trkpt>
      <trkpt lat="44.17725" lon="6.70075">
        <ele>2047.2</ele>
        <time>2025-06-22T08:24:23Z</time>
      </trkpt>
      <trkpt lat="44.17732" lon="6.70079">
        <ele>2046.7</ele>
        <time>2025-06-22T08:24:32Z</time>
      </trkpt>
      <trkpt lat="44.17738" lon="6.70079">
        <ele>2046.5</ele>
        <time>2025-06-22T08:24:49Z</time>
      </trkpt>
      <trkpt lat="44.17744" lon="6.7007">
        <ele>2046.3</ele>
        <time>2025-06-22T08:25:06Z</time>
      </trkpt>
      <trkpt lat="44.17745" lon="6.70063">
        <ele>2046.3</ele>
        <time>2025-06-22T08:25:11.500Z</time>
      </trkpt>
      <trkpt lat="44.17747" lon="6.70057">
        <ele>2046.2</ele>
        <time>2025-06-22T08:25:17Z</time>
      </trkpt>
      <trkpt lat="44.17749" lon="6.70051">
        <ele>2045.9</ele>
        <time>2025-06-22T08:25:22.500Z</time>
      </trkpt>
      <trkpt lat="44.17751" lon="6.70045">
        <ele>2045.6</ele>
        <time>2025-06-22T08:25:28Z</time>
      </trkpt>
      <trkpt lat="44.17755" lon="6.7004">
        <ele>2045.3</ele>
        <time>2025-06-22T08:25:32.500Z</time>
      </trkpt>
      <trkpt lat="44.17758" lon="6.70036">
        <ele>2045</ele>
        <time>2025-06-22T08:25:37Z</time>
      </trkpt>
      <trkpt lat="44.1776" lon="6.70029">
        <ele>2044.7</ele>
        <time>2025-06-22T08:25:42.000Z</time>
      </trkpt>
      <trkpt lat="44.17762" lon="6.70023">
        <ele>2044.4</ele>
        <time>2025-06-22T08:25:47Z</time>
      </trkpt>
      <trkpt lat="44.17764" lon="6.70016">
        <ele>2044.1</ele>
        <time>2025-06-22T08:25:52.500Z</time>
      </trkpt>
      <trkpt lat="44.17766" lon="6.70009">
        <ele>2043.7</ele>
        <time>2025-06-22T08:25:58Z</time>
      </trkpt>
      <trkpt lat="44.17766" lon="6.70001">
        <ele>2043.3</ele>
        <time>2025-06-22T08:26:03.500Z</time>
      </trkpt>
      <trkpt lat="44.17767" lon="6.69993">
        <ele>2042.8</ele>
        <time>2025-06-22T08:26:09Z</time>
      </trkpt>
      <trkpt lat="44.17771" lon="6.69984">
        <ele>2041.8</ele>
        <time>2025-06-22T08:26:23Z</time>
      </trkpt>
      <trkpt lat="44.17768" lon="6.69974">
        <ele>2041.5</ele>
        <time>2025-06-22T08:26:41Z</time>
      </trkpt>
      <trkpt lat="44.1777" lon="6.69966">
        <ele>2040.8</ele>
        <time>2025-06-22T08:26:46.500Z</time>
      </trkpt>
      <trkpt lat="44.17771" lon="6.69959">
        <ele>2040</ele>
        <time>2025-06-22T08:26:52Z</time>
      </trkpt>
      <trkpt lat="44.17776" lon="6.69951">
        <ele>2038.7</ele>
        <time>2025-06-22T08:27:11Z</time>
      </trkpt>
      <trkpt lat="44.17776" lon="6.69943">
        <ele>2038.1</ele>
        <time>2025-06-22T08:27:18.499Z</time>
      </trkpt>
      <trkpt lat="44.17776" lon="6.69934">
        <ele>2037.5</ele>
        <time>2025-06-22T08:27:26Z</time>
      </trkpt>
      <trkpt lat="44.17777" lon="6.69927">
        <ele>2037</ele>
        <time>2025-06-22T08:27:44Z</time>
      </trkpt>
      <trkpt lat="44.17777" lon="6.6992">
        <ele>2036.4</ele>
        <time>2025-06-22T08:27:50.500Z</time>
      </trkpt>
      <trkpt lat="44.17777" lon="6.69913">
        <ele>2035.9</ele>
        <time>2025-06-22T08:27:57Z</time>
      </trkpt>
      <trkpt lat="44.17775" lon="6.69906">
        <ele>2035.6</ele>
        <time>2025-06-22T08:28:03.499Z</time>
      </trkpt>
      <trkpt lat="44.17773" lon="6.69898">
        <ele>2035.4</ele>
        <time>2025-06-22T08:28:10Z</time>
      </trkpt>
      <trkpt lat="44.1777" lon="6.69892">
        <ele>2035.3</ele>
        <time>2025-06-22T08:28:16.499Z</time>
      </trkpt>
      <trkpt lat="44.17767" lon="6.69885">
        <ele>2035.4</ele>
        <time>2025-06-22T08:28:23Z</time>
      </trkpt>
      <trkpt lat="44.17764" lon="6.69874">
        <ele>2035.4</ele>
        <time>2025-06-22T08:28:38Z</time>
      </trkpt>
      <trkpt lat="44.17762" lon="6.69868">
        <ele>2035.6</ele>
        <time>2025-06-22T08:28:44.999Z</time>
      </trkpt>
      <trkpt lat="44.17759" lon="6.69862">
        <ele>2035.7</ele>
        <time>2025-06-22T08:28:52Z</time>
      </trkpt>
      <trkpt lat="44.17759" lon="6.6985">
        <ele>2035.5</ele>
        <time>2025-06-22T08:29:04Z</time>
      </trkpt>
      <trkpt lat="44.17764" lon="6.69845">
        <ele>2034.8</ele>
        <time>2025-06-22T08:29:10.000Z</time>
      </trkpt>
      <trkpt lat="44.17768" lon="6.6984">
        <ele>2034</ele>
        <time>2025-06-22T08:29:16Z</time>
      </trkpt>
      <trkpt lat="44.17769" lon="6.69834">
        <ele>2033.6</ele>
        <time>2025-06-22T08:29:22.500Z</time>
      </trkpt>
      <trkpt lat="44.1777" lon="6.69827">
        <ele>2033.4</ele>
        <time>2025-06-22T08:29:29Z</time>
      </trkpt>
      <trkpt lat="44.17772" lon="6.69819">
        <ele>2033.1</ele>
        <time>2025-06-22T08:29:35.000Z</time>
      </trkpt>
      <trkpt lat="44.17773" lon="6.69811">
        <ele>2032.9</ele>
        <time>2025-06-22T08:29:41Z</time>
      </trkpt>
      <trkpt lat="44.17776" lon="6.69804">
        <ele>2032.4</ele>
        <time>2025-06-22T08:29:47.500Z</time>
      </trkpt>
      <trkpt lat="44.17779" lon="6.69798">
        <ele>2031.8</ele>
        <time>2025-06-22T08:29:54Z</time>
      </trkpt>
      <trkpt lat="44.1778" lon="6.6979">
        <ele>2031.7</ele>
        <time>2025-06-22T08:30:00.000Z</time>
      </trkpt>
      <trkpt lat="44.17781" lon="6.69783">
        <ele>2031.6</ele>
        <time>2025-06-22T08:30:06Z</time>
      </trkpt>
      <trkpt lat="44.17779" lon="6.69777">
        <ele>2031.8</ele>
        <time>2025-06-22T08:31:37.499Z</time>
      </trkpt>
      <trkpt lat="44.17777" lon="6.69771">
        <ele>2031.6</ele>
        <time>2025-06-22T08:33:08.999Z</time>
      </trkpt>
      <trkpt lat="44.17775" lon="6.69765">
        <ele>2031.4</ele>
        <time>2025-06-22T08:34:40.499Z</time>
      </trkpt>
      <trkpt lat="44.17773" lon="6.69759">
        <ele>2031.1</ele>
        <time>2025-06-22T08:36:12Z</time>
      </trkpt>
      <trkpt lat="44.17771" lon="6.69752">
        <ele>2030.7</ele>
        <time>2025-06-22T08:36:22.499Z</time>
      </trkpt>
      <trkpt lat="44.17768" lon="6.69745">
        <ele>2030.1</ele>
        <time>2025-06-22T08:36:33Z</time>
      </trkpt>
      <trkpt lat="44.17764" lon="6.69737">
        <ele>2029.4</ele>
        <time>2025-06-22T08:36:38.499Z</time>
      </trkpt>
      <trkpt lat="44.1776" lon="6.6973">
        <ele>2028.7</ele>
        <time>2025-06-22T08:36:44Z</time>
      </trkpt>
      <trkpt lat="44.17756" lon="6.69724">
        <ele>2028.1</ele>
        <time>2025-06-22T08:36:49.999Z</time>
      </trkpt>
      <trkpt lat="44.17752" lon="6.69718">
        <ele>2027.6</ele>
        <time>2025-06-22T08:36:56Z</time>
      </trkpt>
      <trkpt lat="44.17748" lon="6.69707">
        <ele>2027.2</ele>
        <time>2025-06-22T08:37:08Z</time>
      </trkpt>
      <trkpt lat="44.17749" lon="6.697">
        <ele>2026.7</ele>
        <time>2025-06-22T08:37:14.000Z</time>
      </trkpt>
      <trkpt lat="44.17749" lon="6.69693">
        <ele>2026.2</ele>
        <time>2025-06-22T08:37:20Z</time>
      </trkpt>
      <trkpt lat="44.17751" lon="6.69685">
        <ele>2025.9</ele>
        <time>2025-06-22T08:37:26.000Z</time>
      </trkpt>
      <trkpt lat="44.17754" lon="6.69677">
        <ele>2025.6</ele>
        <time>2025-06-22T08:37:32Z</time>
      </trkpt>
      <trkpt lat="44.17757" lon="6.69672">
        <ele>2025.1</ele>
        <time>2025-06-22T08:37:37.500Z</time>
      </trkpt>
      <trkpt lat="44.1776" lon="6.69668">
        <ele>2024.6</ele>
        <time>2025-06-22T08:37:43Z</time>
      </trkpt>
      <trkpt lat="44.17761" lon="6.69661">
        <ele>2023.9</ele>
        <time>2025-06-22T08:37:48.500Z</time>
      </trkpt>
      <trkpt lat="44.17762" lon="6.69654">
        <ele>2023.1</ele>
        <time>2025-06-22T08:37:54Z</time>
      </trkpt>
      <trkpt lat="44.17763" lon="6.69647">
        <ele>2022.4</ele>
        <time>2025-06-22T08:37:59.000Z</time>
      </trkpt>
      <trkpt lat="44.17764" lon="6.6964">
        <ele>2021.6</ele>
        <time>2025-06-22T08:38:04Z</time>
      </trkpt>
      <trkpt lat="44.17767" lon="6.69629">
        <ele>2019.6</ele>
        <time>2025-06-22T08:38:13Z</time>
      </trkpt>
      <trkpt lat="44.17768" lon="6.69622">
        <ele>2018.4</ele>
        <time>2025-06-22T08:38:19.500Z</time>
      </trkpt>
      <trkpt lat="44.17769" lon="6.69615">
        <ele>2017.1</ele>
        <time>2025-06-22T08:38:26Z</time>
      </trkpt>
      <trkpt lat="44.17766" lon="6.69606">
        <ele>2017</ele>
        <time>2025-06-22T08:38:39Z</time>
      </trkpt>
      <trkpt lat="44.17759" lon="6.69606">
        <ele>2018.6</ele>
        <time>2025-06-22T08:38:55Z</time>
      </trkpt>
      <trkpt lat="44.17754" lon="6.69596">
        <ele>2020</ele>
        <time>2025-06-22T08:39:32Z</time>
      </trkpt>
      <trkpt lat="44.17758" lon="6.69592">
        <ele>2019.1</ele>
        <time>2025-06-22T08:39:40.000Z</time>
      </trkpt>
      <trkpt lat="44.17762" lon="6.69589">
        <ele>2018</ele>
        <time>2025-06-22T08:39:48Z</time>
      </trkpt>
      <trkpt lat="44.17766" lon="6.69584">
        <ele>2016.9</ele>
        <time>2025-06-22T08:39:54.000Z</time>
      </trkpt>
      <trkpt lat="44.17769" lon="6.6958">
        <ele>2016.1</ele>
        <time>2025-06-22T08:40:00Z</time>
      </trkpt>
      <trkpt lat="44.17773" lon="6.69576">
        <ele>2015.2</ele>
        <time>2025-06-22T08:40:06.000Z</time>
      </trkpt>
      <trkpt lat="44.17777" lon="6.69571">
        <ele>2014.2</ele>
        <time>2025-06-22T08:40:12Z</time>
      </trkpt>
      <trkpt lat="44.1778" lon="6.69567">
        <ele>2013.3</ele>
        <time>2025-06-22T08:40:18.000Z</time>
      </trkpt>
      <trkpt lat="44.17784" lon="6.69563">
        <ele>2012.2</ele>
        <time>2025-06-22T08:40:24Z</time>
      </trkpt>
      <trkpt lat="44.17788" lon="6.6956">
        <ele>2010.9</ele>
        <time>2025-06-22T08:40:29.500Z</time>
      </trkpt>
      <trkpt lat="44.17792" lon="6.69557">
        <ele>2009.4</ele>
        <time>2025-06-22T08:40:35Z</time>
      </trkpt>
      <trkpt lat="44.17797" lon="6.69552">
        <ele>2007.8</ele>
        <time>2025-06-22T08:41:05Z</time>
      </trkpt>
      <trkpt lat="44.17802" lon="6.69552">
        <ele>2005.7</ele>
        <time>2025-06-22T08:41:13.500Z</time>
      </trkpt>
      <trkpt lat="44.17808" lon="6.69551">
        <ele>2003.9</ele>
        <time>2025-06-22T08:41:22Z</time>
      </trkpt>
      <trkpt lat="44.17813" lon="6.69549">
        <ele>2002.9</ele>
        <time>2025-06-22T08:41:28.500Z</time>
      </trkpt>
      <trkpt lat="44.17818" lon="6.69547">
        <ele>2001.9</ele>
        <time>2025-06-22T08:41:35Z</time>
      </trkpt>
      <trkpt lat="44.17825" lon="6.6954">
        <ele>2001.1</ele>
        <time>2025-06-22T08:41:55Z</time>
      </trkpt>
      <trkpt lat="44.17829" lon="6.69536">
        <ele>2000.9</ele>
        <time>2025-06-22T08:42:04.500Z</time>
      </trkpt>
      <trkpt lat="44.17833" lon="6.69531">
        <ele>2000.6</ele>
        <time>2025-06-22T08:42:14Z</time>
      </trkpt>
      <trkpt lat="44.17837" lon="6.69527">
        <ele>2000.3</ele>
        <time>2025-06-22T08:42:20.000Z</time>
      </trkpt>
      <trkpt lat="44.17841" lon="6.69523">
        <ele>1999.7</ele>
        <time>2025-06-22T08:42:26Z</time>
      </trkpt>
      <trkpt lat="44.17846" lon="6.69524">
        <ele>1998.6</ele>
        <time>2025-06-22T08:42:32.000Z</time>
      </trkpt>
      <trkpt lat="44.17851" lon="6.69525">
        <ele>1997.4</ele>
        <time>2025-06-22T08:42:38Z</time>
      </trkpt>
      <trkpt lat="44.17859" lon="6.69529">
        <ele>1995.2</ele>
        <time>2025-06-22T08:42:51Z</time>
      </trkpt>
      <trkpt lat="44.17867" lon="6.69534">
        <ele>1992.2</ele>
        <time>2025-06-22T08:43:02Z</time>
      </trkpt>
      <trkpt lat="44.17871" lon="6.69534">
        <ele>1990.9</ele>
        <time>2025-06-22T08:43:09.000Z</time>
      </trkpt>
      <trkpt lat="44.17876" lon="6.69534">
        <ele>1989.5</ele>
        <time>2025-06-22T08:43:16Z</time>
      </trkpt>
      <trkpt lat="44.17879" lon="6.69529">
        <ele>1989.7</ele>
        <time>2025-06-22T08:43:23.000Z</time>
      </trkpt>
      <trkpt lat="44.17882" lon="6.69524">
        <ele>1989</ele>
        <time>2025-06-22T08:43:30Z</time>
      </trkpt>
      <trkpt lat="44.17886" lon="6.69521">
        <ele>1987.6</ele>
        <time>2025-06-22T08:43:36.500Z</time>
      </trkpt>
      <trkpt lat="44.17891" lon="6.69518">
        <ele>1986</ele>
        <time>2025-06-22T08:43:43Z</time>
      </trkpt>
      <trkpt lat="44.17895" lon="6.69516">
        <ele>1984.7</ele>
        <time>2025-06-22T08:43:48.500Z</time>
      </trkpt>
      <trkpt lat="44.179" lon="6.69514">
        <ele>1983.4</ele>
        <time>2025-06-22T08:43:54Z</time>
      </trkpt>
      <trkpt lat="44.17901" lon="6.69517">
        <ele>1982.9</ele>
        <time>2025-06-22T08:44:25Z</time>
      </trkpt>
      <trkpt lat="44.17903" lon="6.69508">
        <ele>1983</ele>
        <time>2025-06-22T08:44:56Z</time>
      </trkpt>
      <trkpt lat="44.1791" lon="6.69507">
        <ele>1981.3</ele>
        <time>2025-06-22T08:45:15Z</time>
      </trkpt>
      <trkpt lat="44.17906" lon="6.69501">
        <ele>1982.9</ele>
        <time>2025-06-22T08:45:46Z</time>
      </trkpt>
      <trkpt lat="44.17903" lon="6.69492">
        <ele>1983.3</ele>
        <time>2025-06-22T08:46:07Z</time>
      </trkpt>
      <trkpt lat="44.17906" lon="6.69485">
        <ele>1982.4</ele>
        <time>2025-06-22T08:46:14.000Z</time>
      </trkpt>
      <trkpt lat="44.17909" lon="6.69479">
        <ele>1981.4</ele>
        <time>2025-06-22T08:46:21Z</time>
      </trkpt>
      <trkpt lat="44.17912" lon="6.69474">
        <ele>1980.3</ele>
        <time>2025-06-22T08:46:27.000Z</time>
      </trkpt>
      <trkpt lat="44.17916" lon="6.69468">
        <ele>1979.6</ele>
        <time>2025-06-22T08:46:33Z</time>
      </trkpt>
      <trkpt lat="44.17921" lon="6.69461">
        <ele>1978.9</ele>
        <time>2025-06-22T08:46:48Z</time>
      </trkpt>
      <trkpt lat="44.17928" lon="6.69456">
        <ele>1977.7</ele>
        <time>2025-06-22T08:47:01Z</time>
      </trkpt>
      <trkpt lat="44.17932" lon="6.69452">
        <ele>1977.2</ele>
        <time>2025-06-22T08:47:10.500Z</time>
      </trkpt>
      <trkpt lat="44.17937" lon="6.69448">
        <ele>1976.8</ele>
        <time>2025-06-22T08:47:20Z</time>
      </trkpt>
      <trkpt lat="44.1794" lon="6.69443">
        <ele>1977</ele>
        <time>2025-06-22T08:47:26.000Z</time>
      </trkpt>
      <trkpt lat="44.17943" lon="6.69438">
        <ele>1977</ele>
        <time>2025-06-22T08:47:32Z</time>
      </trkpt>
      <trkpt lat="44.17947" lon="6.69434">
        <ele>1976.2</ele>
        <time>2025-06-22T08:47:38.500Z</time>
      </trkpt>
      <trkpt lat="44.17952" lon="6.6943">
        <ele>1975.2</ele>
        <time>2025-06-22T08:47:45Z</time>
      </trkpt>
      <trkpt lat="44.17955" lon="6.69425">
        <ele>1974.4</ele>
        <time>2025-06-22T08:47:51.000Z</time>
      </trkpt>
      <trkpt lat="44.17959" lon="6.69421">
        <ele>1973.7</ele>
        <time>2025-06-22T08:47:57Z</time>
      </trkpt>
      <trkpt lat="44.17964" lon="6.69411">
        <ele>1972.3</ele>
        <time>2025-06-22T08:48:09Z</time>
      </trkpt>
      <trkpt lat="44.17967" lon="6.694">
        <ele>1970.7</ele>
        <time>2025-06-22T08:48:20Z</time>
      </trkpt>
      <trkpt lat="44.1797" lon="6.69396">
        <ele>1969.2</ele>
        <time>2025-06-22T08:48:28.000Z</time>
      </trkpt>
      <trkpt lat="44.17974" lon="6.69393">
        <ele>1967.8</ele>
        <time>2025-06-22T08:48:36Z</time>
      </trkpt>
      <trkpt lat="44.17972" lon="6.69386">
        <ele>1968.1</ele>
        <time>2025-06-22T08:48:44.499Z</time>
      </trkpt>
      <trkpt lat="44.1797" lon="6.6938">
        <ele>1968.7</ele>
        <time>2025-06-22T08:48:53Z</time>
      </trkpt>
      <trkpt lat="44.17971" lon="6.69369">
        <ele>1968.2</ele>
        <time>2025-06-22T08:49:08Z</time>
      </trkpt>
      <trkpt lat="44.17976" lon="6.69368">
        <ele>1967.2</ele>
        <time>2025-06-22T08:49:14.500Z</time>
      </trkpt>
      <trkpt lat="44.17981" lon="6.69367">
        <ele>1966.2</ele>
        <time>2025-06-22T08:49:21Z</time>
      </trkpt>
      <trkpt lat="44.1799" lon="6.69367">
        <ele>1964.5</ele>
        <time>2025-06-22T08:49:34Z</time>
      </trkpt>
      <trkpt lat="44.17995" lon="6.69363">
        <ele>1963.7</ele>
        <time>2025-06-22T08:50:01Z</time>
      </trkpt>
      <trkpt lat="44.17996" lon="6.69361">
        <ele>1963.7</ele>
        <time>2025-06-22T08:50:30Z</time>
      </trkpt>
      <trkpt lat="44.18002" lon="6.69358">
        <ele>1963.6</ele>
        <time>2025-06-22T08:50:37.000Z</time>
      </trkpt>
      <trkpt lat="44.18007" lon="6.69355">
        <ele>1963.2</ele>
        <time>2025-06-22T08:50:44Z</time>
      </trkpt>
      <trkpt lat="44.18012" lon="6.69352">
        <ele>1962.8</ele>
        <time>2025-06-22T08:50:50.000Z</time>
      </trkpt>
      <trkpt lat="44.18017" lon="6.6935">
        <ele>1962.3</ele>
        <time>2025-06-22T08:50:56Z</time>
      </trkpt>
      <trkpt lat="44.18021" lon="6.69346">
        <ele>1961.9</ele>
        <time>2025-06-22T08:51:01.500Z</time>
      </trkpt>
      <trkpt lat="44.18026" lon="6.69343">
        <ele>1961.4</ele>
        <time>2025-06-22T08:51:07Z</time>
      </trkpt>
      <trkpt lat="44.18023" lon="6.69347">
        <ele>1961.3</ele>
        <time>2025-06-22T08:51:25Z</time>
      </trkpt>
      <trkpt lat="44.18026" lon="6.69338">
        <ele>1962.4</ele>
        <time>2025-06-22T08:51:31.000Z</time>
      </trkpt>
      <trkpt lat="44.18029" lon="6.6933">
        <ele>1963.5</ele>
        <time>2025-06-22T08:51:37Z</time>
      </trkpt>
      <trkpt lat="44.18032" lon="6.69325">
        <ele>1964.1</ele>
        <time>2025-06-22T08:51:43.000Z</time>
      </trkpt>
      <trkpt lat="44.18035" lon="6.6932">
        <ele>1964.7</ele>
        <time>2025-06-22T08:51:49Z</time>
      </trkpt>
      <trkpt lat="44.1804" lon="6.69317">
        <ele>1963.9</ele>
        <time>2025-06-22T08:51:55.500Z</time>
      </trkpt>
      <trkpt lat="44.18045" lon="6.69314">
        <ele>1963.2</ele>
        <time>2025-06-22T08:52:02Z</time>
      </trkpt>
      <trkpt lat="44.18053" lon="6.69308">
        <ele>1962.9</ele>
        <time>2025-06-22T08:52:14Z</time>
      </trkpt>
      <trkpt lat="44.18057" lon="6.69305">
        <ele>1962.5</ele>
        <time>2025-06-22T08:52:21.000Z</time>
      </trkpt>
      <trkpt lat="44.18061" lon="6.69302">
        <ele>1960.9</ele>
        <time>2025-06-22T08:52:28Z</time>
      </trkpt>
      <trkpt lat="44.18063" lon="6.69293">
        <ele>1960.7</ele>
        <time>2025-06-22T08:52:53Z</time>
      </trkpt>
      <trkpt lat="44.18061" lon="6.69292">
        <ele>1961.8</ele>
        <time>2025-06-22T08:53:19Z</time>
      </trkpt>
      <trkpt lat="44.18063" lon="6.69285">
        <ele>1961.4</ele>
        <time>2025-06-22T08:53:33.500Z</time>
      </trkpt>
      <trkpt lat="44.18065" lon="6.69278">
        <ele>1960.8</ele>
        <time>2025-06-22T08:53:48Z</time>
      </trkpt>
      <trkpt lat="44.18064" lon="6.69271">
        <ele>1961.8</ele>
        <time>2025-06-22T08:53:54.499Z</time>
      </trkpt>
      <trkpt lat="44.18062" lon="6.69265">
        <ele>1962.8</ele>
        <time>2025-06-22T08:54:01Z</time>
      </trkpt>
      <trkpt lat="44.18066" lon="6.69254">
        <ele>1961.5</ele>
        <time>2025-06-22T08:54:16Z</time>
      </trkpt>
      <trkpt lat="44.18069" lon="6.69247">
        <ele>1960.8</ele>
        <time>2025-06-22T08:54:21.500Z</time>
      </trkpt>
      <trkpt lat="44.18072" lon="6.6924">
        <ele>1960.8</ele>
        <time>2025-06-22T08:54:27Z</time>
      </trkpt>
      <trkpt lat="44.18075" lon="6.69234">
        <ele>1960.5</ele>
        <time>2025-06-22T08:54:32.000Z</time>
      </trkpt>
      <trkpt lat="44.18078" lon="6.69228">
        <ele>1960.3</ele>
        <time>2025-06-22T08:54:37Z</time>
      </trkpt>
      <trkpt lat="44.18084" lon="6.69219">
        <ele>1959.5</ele>
        <time>2025-06-22T08:54:48Z</time>
      </trkpt>
      <trkpt lat="44.18088" lon="6.69216">
        <ele>1959.1</ele>
        <time>2025-06-22T08:54:55.000Z</time>
      </trkpt>
      <trkpt lat="44.18092" lon="6.69212">
        <ele>1958.8</ele>
        <time>2025-06-22T08:55:02Z</time>
      </trkpt>
      <trkpt lat="44.18096" lon="6.6921">
        <ele>1957.6</ele>
        <time>2025-06-22T08:55:08.500Z</time>
      </trkpt>
      <trkpt lat="44.18101" lon="6.69209">
        <ele>1956.4</ele>
        <time>2025-06-22T08:55:15Z</time>
      </trkpt>
      <trkpt lat="44.18106" lon="6.69206">
        <ele>1956.2</ele>
        <time>2025-06-22T08:55:21.500Z</time>
      </trkpt>
      <trkpt lat="44.1811" lon="6.69203">
        <ele>1956.2</ele>
        <time>2025-06-22T08:55:28Z</time>
      </trkpt>
      <trkpt lat="44.18114" lon="6.69199">
        <ele>1955.8</ele>
        <time>2025-06-22T08:55:34.000Z</time>
      </trkpt>
      <trkpt lat="44.18118" lon="6.69195">
        <ele>1955.2</ele>
        <time>2025-06-22T08:55:40Z</time>
      </trkpt>
      <trkpt lat="44.1812" lon="6.69189">
        <ele>1955.6</ele>
        <time>2025-06-22T08:55:46.000Z</time>
      </trkpt>
      <trkpt lat="44.18121" lon="6.69182">
        <ele>1956</ele>
        <time>2025-06-22T08:55:52Z</time>
      </trkpt>
      <trkpt lat="44.18123" lon="6.69175">
        <ele>1956.2</ele>
        <time>2025-06-22T08:55:58.000Z</time>
      </trkpt>
      <trkpt lat="44.18125" lon="6.69168">
        <ele>1956.5</ele>
        <time>2025-06-22T08:56:04Z</time>
      </trkpt>
      <trkpt lat="44.18127" lon="6.69161">
        <ele>1956</ele>
        <time>2025-06-22T08:56:09.000Z</time>
      </trkpt>
      <trkpt lat="44.18129" lon="6.69154">
        <ele>1955.6</ele>
        <time>2025-06-22T08:56:14Z</time>
      </trkpt>
      <trkpt lat="44.18134" lon="6.69144">
        <ele>1955.1</ele>
        <time>2025-06-22T08:56:23Z</time>
      </trkpt>
      <trkpt lat="44.18138" lon="6.69141">
        <ele>1954.8</ele>
        <time>2025-06-22T08:56:29.000Z</time>
      </trkpt>
      <trkpt lat="44.18142" lon="6.69137">
        <ele>1953.5</ele>
        <time>2025-06-22T08:56:35Z</time>
      </trkpt>
      <trkpt lat="44.18146" lon="6.69132">
        <ele>1952</ele>
        <time>2025-06-22T08:56:41.000Z</time>
      </trkpt>
      <trkpt lat="44.18149" lon="6.69127">
        <ele>1950.8</ele>
        <time>2025-06-22T08:56:47Z</time>
      </trkpt>
      <trkpt lat="44.18153" lon="6.69122">
        <ele>1950.1</ele>
        <time>2025-06-22T08:56:57.000Z</time>
      </trkpt>
      <trkpt lat="44.18157" lon="6.69117">
        <ele>1949.6</ele>
        <time>2025-06-22T08:57:07Z</time>
      </trkpt>
      <trkpt lat="44.1816" lon="6.69113">
        <ele>1949.2</ele>
        <time>2025-06-22T08:57:12.500Z</time>
      </trkpt>
      <trkpt lat="44.18164" lon="6.69109">
        <ele>1948.5</ele>
        <time>2025-06-22T08:57:18Z</time>
      </trkpt>
      <trkpt lat="44.18167" lon="6.69104">
        <ele>1947.4</ele>
        <time>2025-06-22T08:57:24.000Z</time>
      </trkpt>
      <trkpt lat="44.1817" lon="6.69099">
        <ele>1946.1</ele>
        <time>2025-06-22T08:57:30Z</time>
      </trkpt>
      <trkpt lat="44.18171" lon="6.69092">
        <ele>1945.5</ele>
        <time>2025-06-22T08:57:35.500Z</time>
      </trkpt>
      <trkpt lat="44.18173" lon="6.69086">
        <ele>1945</ele>
        <time>2025-06-22T08:57:41Z</time>
      </trkpt>
      <trkpt lat="44.18173" lon="6.69079">
        <ele>1944.3</ele>
        <time>2025-06-22T08:57:46.500Z</time>
      </trkpt>
      <trkpt lat="44.18174" lon="6.69072">
        <ele>1943.5</ele>
        <time>2025-06-22T08:57:52Z</time>
      </trkpt>
      <trkpt lat="44.18173" lon="6.69065">
        <ele>1943</ele>
        <time>2025-06-22T08:57:58.999Z</time>
      </trkpt>
      <trkpt lat="44.18173" lon="6.69059">
        <ele>1942.5</ele>
        <time>2025-06-22T08:58:06Z</time>
      </trkpt>
      <trkpt lat="44.18174" lon="6.69052">
        <ele>1941.4</ele>
        <time>2025-06-22T08:58:12.000Z</time>
      </trkpt>
      <trkpt lat="44.18175" lon="6.69045">
        <ele>1940.2</ele>
        <time>2025-06-22T08:58:18Z</time>
      </trkpt>
      <trkpt lat="44.18175" lon="6.69038">
        <ele>1939.6</ele>
        <time>2025-06-22T08:58:23.499Z</time>
      </trkpt>
      <trkpt lat="44.18174" lon="6.69032">
        <ele>1938.9</ele>
        <time>2025-06-22T08:58:29Z</time>
      </trkpt>
      <trkpt lat="44.18167" lon="6.6903">
        <ele>1940.2</ele>
        <time>2025-06-22T08:58:44Z</time>
      </trkpt>
      <trkpt lat="44.18162" lon="6.69036">
        <ele>1940.4</ele>
        <time>2025-06-22T08:58:51.499Z</time>
      </trkpt>
      <trkpt lat="44.18157" lon="6.69042">
        <ele>1940.6</ele>
        <time>2025-06-22T08:58:59Z</time>
      </trkpt>
      <trkpt lat="44.18152" lon="6.69047">
        <ele>1940.9</ele>
        <time>2025-06-22T08:59:03.999Z</time>
      </trkpt>
      <trkpt lat="44.18148" lon="6.69053">
        <ele>1941.4</ele>
        <time>2025-06-22T08:59:09Z</time>
      </trkpt>
      <trkpt lat="44.18139" lon="6.69054">
        <ele>1940.8</ele>
        <time>2025-06-22T08:59:21Z</time>
      </trkpt>
      <trkpt lat="44.18131" lon="6.69054">
        <ele>1940.1</ele>
        <time>2025-06-22T08:59:31Z</time>
      </trkpt>
      <trkpt lat="44.18126" lon="6.69053">
        <ele>1939.5</ele>
        <time>2025-06-22T08:59:36.000Z</time>
      </trkpt>
      <trkpt lat="44.18122" lon="6.69051">
        <ele>1938.9</ele>
        <time>2025-06-22T08:59:41Z</time>
      </trkpt>
      <trkpt lat="44.18119" lon="6.69045">
        <ele>1937.6</ele>
        <time>2025-06-22T08:59:45.999Z</time>
      </trkpt>
      <trkpt lat="44.18116" lon="6.69039">
        <ele>1936.3</ele>
        <time>2025-06-22T08:59:51Z</time>
      </trkpt>
      <trkpt lat="44.18108" lon="6.69042">
        <ele>1936.5</ele>
        <time>2025-06-22T09:01:05Z</time>
      </trkpt>
      <trkpt lat="44.1811" lon="6.69046">
        <ele>1937.2</ele>
        <time>2025-06-22T09:05:16Z</time>
      </trkpt>
      <trkpt lat="44.18109" lon="6.69044">
        <ele>1937</ele>
        <time>2025-06-22T09:05:48Z</time>
      </trkpt>
      <trkpt lat="44.18112" lon="6.69039">
        <ele>1936</ele>
        <time>2025-06-22T09:08:47Z</time>
      </trkpt>
      <trkpt lat="44.18115" lon="6.69042">
        <ele>1936.8</ele>
        <time>2025-06-22T09:10:19Z</time>
      </trkpt>
      <trkpt lat="44.18119" lon="6.69053">
        <ele>1939.1</ele>
        <time>2025-06-22T09:10:39Z</time>
      </trkpt>
      <trkpt lat="44.18127" lon="6.69055">
        <ele>1940.1</ele>
        <time>2025-06-22T09:11:02Z</time>
      </trkpt>
      <trkpt lat="44.18132" lon="6.69055">
        <ele>1940.3</ele>
        <time>2025-06-22T09:11:07.500Z</time>
      </trkpt>
      <trkpt lat="44.18136" lon="6.69054">
        <ele>1940.5</ele>
        <time>2025-06-22T09:11:13Z</time>
      </trkpt>
      <trkpt lat="44.18142" lon="6.69051">
        <ele>1940.4</ele>
        <time>2025-06-22T09:11:19.500Z</time>
      </trkpt>
      <trkpt lat="44.18148" lon="6.69049">
        <ele>1940.6</ele>
        <time>2025-06-22T09:11:26Z</time>
      </trkpt>
      <trkpt lat="44.18152" lon="6.69044">
        <ele>1940.3</ele>
        <time>2025-06-22T09:11:31.500Z</time>
      </trkpt>
      <trkpt lat="44.18156" lon="6.6904">
        <ele>1940.2</ele>
        <time>2025-06-22T09:11:37Z</time>
      </trkpt>
      <trkpt lat="44.18159" lon="6.69037">
        <ele>1940.1</ele>
        <time>2025-06-22T09:11:43.000Z</time>
      </trkpt>
      <trkpt lat="44.18163" lon="6.69033">
        <ele>1940.1</ele>
        <time>2025-06-22T09:11:49Z</time>
      </trkpt>
      <trkpt lat="44.18171" lon="6.69028">
        <ele>1939.1</ele>
        <time>2025-06-22T09:12:04Z</time>
      </trkpt>
      <trkpt lat="44.18172" lon="6.69036">
        <ele>1939.8</ele>
        <time>2025-06-22T09:12:11.500Z</time>
      </trkpt>
      <trkpt lat="44.18174" lon="6.69043">
        <ele>1940.4</ele>
        <time>2025-06-22T09:12:19Z</time>
      </trkpt>
      <trkpt lat="44.18173" lon="6.69051">
        <ele>1941.6</ele>
        <time>2025-06-22T09:12:25.999Z</time>
      </trkpt>
      <trkpt lat="44.18172" lon="6.69059">
        <ele>1942.7</ele>
        <time>2025-06-22T09:12:33Z</time>
      </trkpt>
      <trkpt lat="44.18172" lon="6.69066">
        <ele>1943.4</ele>
        <time>2025-06-22T09:12:39.000Z</time>
      </trkpt>
      <trkpt lat="44.18172" lon="6.69073">
        <ele>1944.1</ele>
        <time>2025-06-22T09:12:45Z</time>
      </trkpt>
      <trkpt lat="44.18173" lon="6.6908">
        <ele>1944.6</ele>
        <time>2025-06-22T09:12:52.500Z</time>
      </trkpt>
      <trkpt lat="44.18173" lon="6.69087">
        <ele>1944.9</ele>
        <time>2025-06-22T09:13:00Z</time>
      </trkpt>
      <trkpt lat="44.18175" lon="6.69099">
        <ele>1944.6</ele>
        <time>2025-06-22T09:13:14Z</time>
      </trkpt>
      <trkpt lat="44.18171" lon="6.69105">
        <ele>1945.9</ele>
        <time>2025-06-22T09:13:21.499Z</time>
      </trkpt>
      <trkpt lat="44.18168" lon="6.69111">
        <ele>1947.5</ele>
        <time>2025-06-22T09:13:29Z</time>
      </trkpt>
      <trkpt lat="44.18161" lon="6.69119">
        <ele>1947.8</ele>
        <time>2025-06-22T09:13:41Z</time>
      </trkpt>
      <trkpt lat="44.18156" lon="6.69128">
        <ele>1948</ele>
        <time>2025-06-22T09:14:09Z</time>
      </trkpt>
      <trkpt lat="44.18152" lon="6.69131">
        <ele>1949.5</ele>
        <time>2025-06-22T09:14:22.499Z</time>
      </trkpt>
      <trkpt lat="44.18147" lon="6.69134">
        <ele>1951.2</ele>
        <time>2025-06-22T09:14:36Z</time>
      </trkpt>
      <trkpt lat="44.18144" lon="6.69139">
        <ele>1952.6</ele>
        <time>2025-06-22T09:14:41.499Z</time>
      </trkpt>
      <trkpt lat="44.1814" lon="6.69143">
        <ele>1953.6</ele>
        <time>2025-06-22T09:14:47Z</time>
      </trkpt>
      <trkpt lat="44.18137" lon="6.69149">
        <ele>1953.7</ele>
        <time>2025-06-22T09:14:51.999Z</time>
      </trkpt>
      <trkpt lat="44.18134" lon="6.69155">
        <ele>1953.8</ele>
        <time>2025-06-22T09:14:57Z</time>
      </trkpt>
      <trkpt lat="44.18132" lon="6.69163">
        <ele>1953.7</ele>
        <time>2025-06-22T09:15:02.499Z</time>
      </trkpt>
      <trkpt lat="44.1813" lon="6.69171">
        <ele>1953.6</ele>
        <time>2025-06-22T09:15:08Z</time>
      </trkpt>
      <trkpt lat="44.18129" lon="6.69182">
        <ele>1952.1</ele>
        <time>2025-06-22T09:15:21Z</time>
      </trkpt>
      <trkpt lat="44.18126" lon="6.69189">
        <ele>1952.2</ele>
        <time>2025-06-22T09:15:26.999Z</time>
      </trkpt>
      <trkpt lat="44.18124" lon="6.69196">
        <ele>1952.1</ele>
        <time>2025-06-22T09:15:33Z</time>
      </trkpt>
      <trkpt lat="44.18119" lon="6.69198">
        <ele>1953.7</ele>
        <time>2025-06-22T09:15:38.499Z</time>
      </trkpt>
      <trkpt lat="44.18114" lon="6.692">
        <ele>1955.4</ele>
        <time>2025-06-22T09:15:44Z</time>
      </trkpt>
      <trkpt lat="44.1811" lon="6.69204">
        <ele>1955.7</ele>
        <time>2025-06-22T09:15:49.999Z</time>
      </trkpt>
      <trkpt lat="44.18106" lon="6.69207">
        <ele>1955.7</ele>
        <time>2025-06-22T09:15:56Z</time>
      </trkpt>
      <trkpt lat="44.18101" lon="6.69208">
        <ele>1956.9</ele>
        <time>2025-06-22T09:16:01.500Z</time>
      </trkpt>
      <trkpt lat="44.18096" lon="6.69209">
        <ele>1958.2</ele>
        <time>2025-06-22T09:16:07Z</time>
      </trkpt>
      <trkpt lat="44.18091" lon="6.69215">
        <ele>1958</ele>
        <time>2025-06-22T09:16:12.999Z</time>
      </trkpt>
      <trkpt lat="44.18087" lon="6.69221">
        <ele>1958.1</ele>
        <time>2025-06-22T09:16:19Z</time>
      </trkpt>
      <trkpt lat="44.18084" lon="6.69227">
        <ele>1957.9</ele>
        <time>2025-06-22T09:16:23.999Z</time>
      </trkpt>
      <trkpt lat="44.18081" lon="6.69233">
        <ele>1957.9</ele>
        <time>2025-06-22T09:16:29Z</time>
      </trkpt>
      <trkpt lat="44.18077" lon="6.69244">
        <ele>1957.4</ele>
        <time>2025-06-22T09:16:39Z</time>
      </trkpt>
      <trkpt lat="44.18073" lon="6.6925">
        <ele>1958.1</ele>
        <time>2025-06-22T09:16:44.999Z</time>
      </trkpt>
      <trkpt lat="44.1807" lon="6.69255">
        <ele>1959.8</ele>
        <time>2025-06-22T09:16:51Z</time>
      </trkpt>
      <trkpt lat="44.18066" lon="6.69262">
        <ele>1961.1</ele>
        <time>2025-06-22T09:16:56.999Z</time>
      </trkpt>
      <trkpt lat="44.18063" lon="6.69269">
        <ele>1962.3</ele>
        <time>2025-06-22T09:17:03Z</time>
      </trkpt>
      <trkpt lat="44.18065" lon="6.69277">
        <ele>1961.1</ele>
        <time>2025-06-22T09:17:16Z</time>
      </trkpt>
      <trkpt lat="44.18069" lon="6.69288">
        <ele>1958.7</ele>
        <time>2025-06-22T09:17:28Z</time>
      </trkpt>
      <trkpt lat="44.18075" lon="6.69293">
        <ele>1955.8</ele>
        <time>2025-06-22T09:17:46Z</time>
      </trkpt>
      <trkpt lat="44.18072" lon="6.69298">
        <ele>1956.8</ele>
        <time>2025-06-22T09:17:57.499Z</time>
      </trkpt>
      <trkpt lat="44.18069" lon="6.69303">
        <ele>1957.7</ele>
        <time>2025-06-22T09:18:09Z</time>
      </trkpt>
      <trkpt lat="44.18063" lon="6.69303">
        <ele>1960.2</ele>
        <time>2025-06-22T09:18:24Z</time>
      </trkpt>
      <trkpt lat="44.18055" lon="6.69307">
        <ele>1962.6</ele>
        <time>2025-06-22T09:18:34Z</time>
      </trkpt>
      <trkpt lat="44.18047" lon="6.69313">
        <ele>1962.8</ele>
        <time>2025-06-22T09:18:43Z</time>
      </trkpt>
      <trkpt lat="44.18043" lon="6.69321">
        <ele>1961.5</ele>
        <time>2025-06-22T09:18:47.999Z</time>
      </trkpt>
      <trkpt lat="44.1804" lon="6.69329">
        <ele>1960.3</ele>
        <time>2025-06-22T09:18:53Z</time>
      </trkpt>
      <trkpt lat="44.18037" lon="6.69336">
        <ele>1959.1</ele>
        <time>2025-06-22T09:18:59.499Z</time>
      </trkpt>
      <trkpt lat="44.18035" lon="6.69343">
        <ele>1958.4</ele>
        <time>2025-06-22T09:19:06Z</time>
      </trkpt>
      <trkpt lat="44.18029" lon="6.69352">
        <ele>1958.6</ele>
        <time>2025-06-22T09:19:18Z</time>
      </trkpt>
      <trkpt lat="44.18022" lon="6.69354">
        <ele>1959.9</ele>
        <time>2025-06-22T09:19:35Z</time>
      </trkpt>
      <trkpt lat="44.18017" lon="6.69357">
        <ele>1960.3</ele>
        <time>2025-06-22T09:19:41.999Z</time>
      </trkpt>
      <trkpt lat="44.18012" lon="6.69361">
        <ele>1960.5</ele>
        <time>2025-06-22T09:19:49Z</time>
      </trkpt>
      <trkpt lat="44.18008" lon="6.69364">
        <ele>1961</ele>
        <time>2025-06-22T09:19:53.999Z</time>
      </trkpt>
      <trkpt lat="44.18003" lon="6.69367">
        <ele>1961.7</ele>
        <time>2025-06-22T09:19:59Z</time>
      </trkpt>
      <trkpt lat="44.17998" lon="6.69368">
        <ele>1962.7</ele>
        <time>2025-06-22T09:20:04.000Z</time>
      </trkpt>
      <trkpt lat="44.17993" lon="6.6937">
        <ele>1963.6</ele>
        <time>2025-06-22T09:20:09Z</time>
      </trkpt>
      <trkpt lat="44.17984" lon="6.6937">
        <ele>1965.5</ele>
        <time>2025-06-22T09:20:19Z</time>
      </trkpt>
      <trkpt lat="44.1798" lon="6.69374">
        <ele>1966.2</ele>
        <time>2025-06-22T09:20:26.999Z</time>
      </trkpt>
      <trkpt lat="44.17976" lon="6.69377">
        <ele>1967.1</ele>
        <time>2025-06-22T09:20:35Z</time>
      </trkpt>
      <trkpt lat="44.17979" lon="6.69386">
        <ele>1966</ele>
        <time>2025-06-22T09:20:55Z</time>
      </trkpt>
      <trkpt lat="44.17978" lon="6.69395">
        <ele>1966.7</ele>
        <time>2025-06-22T09:21:11Z</time>
      </trkpt>
      <trkpt lat="44.17981" lon="6.69405">
        <ele>1966.3</ele>
        <time>2025-06-22T09:21:23Z</time>
      </trkpt>
      <trkpt lat="44.17981" lon="6.69412">
        <ele>1967</ele>
        <time>2025-06-22T09:21:28.499Z</time>
      </trkpt>
      <trkpt lat="44.1798" lon="6.6942">
        <ele>1966.8</ele>
        <time>2025-06-22T09:21:34Z</time>
      </trkpt>
      <trkpt lat="44.17976" lon="6.69428">
        <ele>1967.1</ele>
        <time>2025-06-22T09:21:38.999Z</time>
      </trkpt>
      <trkpt lat="44.17972" lon="6.69435">
        <ele>1967.6</ele>
        <time>2025-06-22T09:21:44Z</time>
      </trkpt>
      <trkpt lat="44.17969" lon="6.69441">
        <ele>1967.6</ele>
        <time>2025-06-22T09:21:49.999Z</time>
      </trkpt>
      <trkpt lat="44.17966" lon="6.69448">
        <ele>1967.7</ele>
        <time>2025-06-22T09:21:56Z</time>
      </trkpt>
      <trkpt lat="44.17963" lon="6.69453">
        <ele>1968.2</ele>
        <time>2025-06-22T09:22:03.499Z</time>
      </trkpt>
      <trkpt lat="44.1796" lon="6.69458">
        <ele>1968.6</ele>
        <time>2025-06-22T09:22:11Z</time>
      </trkpt>
      <trkpt lat="44.17956" lon="6.69461">
        <ele>1969.2</ele>
        <time>2025-06-22T09:22:33Z</time>
      </trkpt>
      <trkpt lat="44.17954" lon="6.69454">
        <ele>1970.9</ele>
        <time>2025-06-22T09:22:46.499Z</time>
      </trkpt>
      <trkpt lat="44.17952" lon="6.69448">
        <ele>1972.7</ele>
        <time>2025-06-22T09:23:00Z</time>
      </trkpt>
      <trkpt lat="44.17944" lon="6.69444">
        <ele>1976.2</ele>
        <time>2025-06-22T09:23:19Z</time>
      </trkpt>
      <trkpt lat="44.17939" lon="6.69446">
        <ele>1976.8</ele>
        <time>2025-06-22T09:23:58Z</time>
      </trkpt>
      <trkpt lat="44.17933" lon="6.69453">
        <ele>1976.9</ele>
        <time>2025-06-22T09:24:32Z</time>
      </trkpt>
      <trkpt lat="44.1793" lon="6.69457">
        <ele>1977.1</ele>
        <time>2025-06-22T09:24:40.499Z</time>
      </trkpt>
      <trkpt lat="44.17926" lon="6.69462">
        <ele>1977.5</ele>
        <time>2025-06-22T09:24:49Z</time>
      </trkpt>
      <trkpt lat="44.1792" lon="6.69469">
        <ele>1978.2</ele>
        <time>2025-06-22T09:25:06Z</time>
      </trkpt>
      <trkpt lat="44.17917" lon="6.69474">
        <ele>1979</ele>
        <time>2025-06-22T09:25:12.999Z</time>
      </trkpt>
      <trkpt lat="44.17914" lon="6.6948">
        <ele>1980.2</ele>
        <time>2025-06-22T09:25:20Z</time>
      </trkpt>
      <trkpt lat="44.17909" lon="6.69489">
        <ele>1981.9</ele>
        <time>2025-06-22T09:25:32Z</time>
      </trkpt>
      <trkpt lat="44.17912" lon="6.69495">
        <ele>1981.7</ele>
        <time>2025-06-22T09:25:41.500Z</time>
      </trkpt>
      <trkpt lat="44.17914" lon="6.69502">
        <ele>1981.3</ele>
        <time>2025-06-22T09:25:51Z</time>
      </trkpt>
      <trkpt lat="44.17907" lon="6.69508">
        <ele>1982</ele>
        <time>2025-06-22T09:26:10Z</time>
      </trkpt>
      <trkpt lat="44.17902" lon="6.69512">
        <ele>1982.9</ele>
        <time>2025-06-22T09:26:17.499Z</time>
      </trkpt>
      <trkpt lat="44.17897" lon="6.69515">
        <ele>1984</ele>
        <time>2025-06-22T09:26:25Z</time>
      </trkpt>
      <trkpt lat="44.17893" lon="6.69519">
        <ele>1985.2</ele>
        <time>2025-06-22T09:26:30.999Z</time>
      </trkpt>
      <trkpt lat="44.17889" lon="6.69523">
        <ele>1986.7</ele>
        <time>2025-06-22T09:26:37Z</time>
      </trkpt>
      <trkpt lat="44.17886" lon="6.69527">
        <ele>1987.9</ele>
        <time>2025-06-22T09:26:45.499Z</time>
      </trkpt>
      <trkpt lat="44.17882" lon="6.69531">
        <ele>1988.4</ele>
        <time>2025-06-22T09:26:54Z</time>
      </trkpt>
      <trkpt lat="44.17878" lon="6.69535">
        <ele>1988.8</ele>
        <time>2025-06-22T09:27:03.499Z</time>
      </trkpt>
      <trkpt lat="44.17874" lon="6.69539">
        <ele>1989.2</ele>
        <time>2025-06-22T09:27:13Z</time>
      </trkpt>
      <trkpt lat="44.17869" lon="6.69534">
        <ele>1991.3</ele>
        <time>2025-06-22T09:27:22.499Z</time>
      </trkpt>
      <trkpt lat="44.17865" lon="6.6953">
        <ele>1993.5</ele>
        <time>2025-06-22T09:27:32Z</time>
      </trkpt>
      <trkpt lat="44.17862" lon="6.69526">
        <ele>1994.9</ele>
        <time>2025-06-22T09:29:37Z</time>
      </trkpt>
      <trkpt lat="44.17857" lon="6.69524">
        <ele>1996.3</ele>
        <time>2025-06-22T09:32:04Z</time>
      </trkpt>
      <trkpt lat="44.17848" lon="6.6952">
        <ele>1998.5</ele>
        <time>2025-06-22T09:32:20Z</time>
      </trkpt>
      <trkpt lat="44.17841" lon="6.69527">
        <ele>1999.5</ele>
        <time>2025-06-22T09:32:36Z</time>
      </trkpt>
      <trkpt lat="44.17833" lon="6.69532">
        <ele>2000.5</ele>
        <time>2025-06-22T09:32:53Z</time>
      </trkpt>
      <trkpt lat="44.1783" lon="6.69539">
        <ele>2000.2</ele>
        <time>2025-06-22T09:33:01.499Z</time>
      </trkpt>
      <trkpt lat="44.17827" lon="6.69545">
        <ele>2000.1</ele>
        <time>2025-06-22T09:33:10Z</time>
      </trkpt>
      <trkpt lat="44.17823" lon="6.69548">
        <ele>2000.6</ele>
        <time>2025-06-22T09:33:17.999Z</time>
      </trkpt>
      <trkpt lat="44.17819" lon="6.69552">
        <ele>2001.2</ele>
        <time>2025-06-22T09:33:26Z</time>
      </trkpt>
      <trkpt lat="44.17814" lon="6.69552">
        <ele>2002.3</ele>
        <time>2025-06-22T09:33:34.500Z</time>
      </trkpt>
      <trkpt lat="44.17809" lon="6.69553">
        <ele>2003.4</ele>
        <time>2025-06-22T09:33:43Z</time>
      </trkpt>
      <trkpt lat="44.17804" lon="6.69554">
        <ele>2004.7</ele>
        <time>2025-06-22T09:33:51.500Z</time>
      </trkpt>
      <trkpt lat="44.17799" lon="6.69555">
        <ele>2006.6</ele>
        <time>2025-06-22T09:34:00Z</time>
      </trkpt>
      <trkpt lat="44.17792" lon="6.69562">
        <ele>2009.3</ele>
        <time>2025-06-22T09:34:14Z</time>
      </trkpt>
      <trkpt lat="44.17789" lon="6.69566">
        <ele>2010.6</ele>
        <time>2025-06-22T09:34:21.499Z</time>
      </trkpt>
      <trkpt lat="44.17785" lon="6.6957">
        <ele>2011.7</ele>
        <time>2025-06-22T09:34:29Z</time>
      </trkpt>
      <trkpt lat="44.17781" lon="6.69575">
        <ele>2012.6</ele>
        <time>2025-06-22T09:34:36.499Z</time>
      </trkpt>
      <trkpt lat="44.17778" lon="6.6958">
        <ele>2013.3</ele>
        <time>2025-06-22T09:34:44Z</time>
      </trkpt>
      <trkpt lat="44.17775" lon="6.69591">
        <ele>2014.4</ele>
        <time>2025-06-22T09:35:01Z</time>
      </trkpt>
      <trkpt lat="44.1777" lon="6.69593">
        <ele>2015.8</ele>
        <time>2025-06-22T09:35:30Z</time>
      </trkpt>
      <trkpt lat="44.17766" lon="6.69595">
        <ele>2017.1</ele>
        <time>2025-06-22T09:35:39.499Z</time>
      </trkpt>
      <trkpt lat="44.17761" lon="6.69597">
        <ele>2018.3</ele>
        <time>2025-06-22T09:35:49Z</time>
      </trkpt>
      <trkpt lat="44.17761" lon="6.69607">
        <ele>2018.2</ele>
        <time>2025-06-22T09:36:05Z</time>
      </trkpt>
      <trkpt lat="44.17766" lon="6.69606">
        <ele>2017.1</ele>
        <time>2025-06-22T09:36:12.500Z</time>
      </trkpt>
      <trkpt lat="44.17771" lon="6.69606">
        <ele>2016</ele>
        <time>2025-06-22T09:36:20Z</time>
      </trkpt>
      <trkpt lat="44.17777" lon="6.69614">
        <ele>2015.5</ele>
        <time>2025-06-22T09:36:33Z</time>
      </trkpt>
      <trkpt lat="44.17777" lon="6.69626">
        <ele>2017.4</ele>
        <time>2025-06-22T09:36:53Z</time>
      </trkpt>
      <trkpt lat="44.17773" lon="6.69632">
        <ele>2018.8</ele>
        <time>2025-06-22T09:36:59.499Z</time>
      </trkpt>
      <trkpt lat="44.1777" lon="6.69638">
        <ele>2020.3</ele>
        <time>2025-06-22T09:37:06Z</time>
      </trkpt>
      <trkpt lat="44.1777" lon="6.69645">
        <ele>2021</ele>
        <time>2025-06-22T09:37:11.999Z</time>
      </trkpt>
      <trkpt lat="44.17769" lon="6.69651">
        <ele>2021.7</ele>
        <time>2025-06-22T09:37:18Z</time>
      </trkpt>
      <trkpt lat="44.17768" lon="6.69658">
        <ele>2022.6</ele>
        <time>2025-06-22T09:37:24.499Z</time>
      </trkpt>
      <trkpt lat="44.17766" lon="6.69664">
        <ele>2023.4</ele>
        <time>2025-06-22T09:37:31Z</time>
      </trkpt>
      <trkpt lat="44.17764" lon="6.69672">
        <ele>2024.2</ele>
        <time>2025-06-22T09:37:36.999Z</time>
      </trkpt>
      <trkpt lat="44.17761" lon="6.69679">
        <ele>2024.8</ele>
        <time>2025-06-22T09:37:43Z</time>
      </trkpt>
      <trkpt lat="44.17758" lon="6.69685">
        <ele>2025.2</ele>
        <time>2025-06-22T09:37:48.499Z</time>
      </trkpt>
      <trkpt lat="44.17755" lon="6.69691">
        <ele>2025.6</ele>
        <time>2025-06-22T09:37:54Z</time>
      </trkpt>
      <trkpt lat="44.17756" lon="6.69698">
        <ele>2025.9</ele>
        <time>2025-06-22T09:38:00.000Z</time>
      </trkpt>
      <trkpt lat="44.17757" lon="6.69706">
        <ele>2026.4</ele>
        <time>2025-06-22T09:38:06Z</time>
      </trkpt>
      <trkpt lat="44.17754" lon="6.69717">
        <ele>2027.4</ele>
        <time>2025-06-22T09:38:31Z</time>
      </trkpt>
      <trkpt lat="44.17758" lon="6.6972">
        <ele>2027.5</ele>
        <time>2025-06-22T09:38:39.000Z</time>
      </trkpt>
      <trkpt lat="44.17762" lon="6.69723">
        <ele>2027.7</ele>
        <time>2025-06-22T09:38:47Z</time>
      </trkpt>
      <trkpt lat="44.17764" lon="6.69721">
        <ele>2027.4</ele>
        <time>2025-06-22T09:39:07Z</time>
      </trkpt>
      <trkpt lat="44.17767" lon="6.69727">
        <ele>2028</ele>
        <time>2025-06-22T09:39:16.000Z</time>
      </trkpt>
      <trkpt lat="44.17769" lon="6.69732">
        <ele>2028.5</ele>
        <time>2025-06-22T09:39:25Z</time>
      </trkpt>
      <trkpt lat="44.17773" lon="6.69738">
        <ele>2029</ele>
        <time>2025-06-22T09:39:36.500Z</time>
      </trkpt>
      <trkpt lat="44.17776" lon="6.69744">
        <ele>2029.4</ele>
        <time>2025-06-22T09:39:48Z</time>
      </trkpt>
      <trkpt lat="44.17782" lon="6.69753">
        <ele>2029.8</ele>
        <time>2025-06-22T09:39:54.500Z</time>
      </trkpt>
      <trkpt lat="44.17787" lon="6.69762">
        <ele>2029.7</ele>
        <time>2025-06-22T09:40:01Z</time>
      </trkpt>
      <trkpt lat="44.1779" lon="6.69768">
        <ele>2029.7</ele>
        <time>2025-06-22T09:40:07.500Z</time>
      </trkpt>
      <trkpt lat="44.17793" lon="6.69775">
        <ele>2029.7</ele>
        <time>2025-06-22T09:40:14Z</time>
      </trkpt>
      <trkpt lat="44.17791" lon="6.69784">
        <ele>2030.1</ele>
        <time>2025-06-22T09:40:20.499Z</time>
      </trkpt>
      <trkpt lat="44.17789" lon="6.69794">
        <ele>2030.2</ele>
        <time>2025-06-22T09:40:27Z</time>
      </trkpt>
      <trkpt lat="44.17785" lon="6.698">
        <ele>2030.8</ele>
        <time>2025-06-22T09:40:33.499Z</time>
      </trkpt>
      <trkpt lat="44.17781" lon="6.69807">
        <ele>2031.5</ele>
        <time>2025-06-22T09:40:40Z</time>
      </trkpt>
      <trkpt lat="44.17781" lon="6.69815">
        <ele>2031.4</ele>
        <time>2025-06-22T09:40:48.000Z</time>
      </trkpt>
      <trkpt lat="44.17781" lon="6.69823">
        <ele>2031.4</ele>
        <time>2025-06-22T09:40:56Z</time>
      </trkpt>
      <trkpt lat="44.1778" lon="6.69831">
        <ele>2031.5</ele>
        <time>2025-06-22T09:41:04.499Z</time>
      </trkpt>
      <trkpt lat="44.17779" lon="6.6984">
        <ele>2031.9</ele>
        <time>2025-06-22T09:41:13Z</time>
      </trkpt>
      <trkpt lat="44.17775" lon="6.69847">
        <ele>2033</ele>
        <time>2025-06-22T09:41:17.499Z</time>
      </trkpt>
      <trkpt lat="44.17771" lon="6.69855">
        <ele>2033.9</ele>
        <time>2025-06-22T09:41:22Z</time>
      </trkpt>
      <trkpt lat="44.17769" lon="6.69861">
        <ele>2034.3</ele>
        <time>2025-06-22T09:41:27.499Z</time>
      </trkpt>
      <trkpt lat="44.17767" lon="6.69868">
        <ele>2034.8</ele>
        <time>2025-06-22T09:41:33Z</time>
      </trkpt>
      <trkpt lat="44.17771" lon="6.69875">
        <ele>2034.5</ele>
        <time>2025-06-22T09:41:39.500Z</time>
      </trkpt>
      <trkpt lat="44.17775" lon="6.69883">
        <ele>2034.3</ele>
        <time>2025-06-22T09:41:46Z</time>
      </trkpt>
      <trkpt lat="44.17778" lon="6.6989">
        <ele>2034</ele>
        <time>2025-06-22T09:41:51.000Z</time>
      </trkpt>
      <trkpt lat="44.17782" lon="6.69898">
        <ele>2033.7</ele>
        <time>2025-06-22T09:41:56Z</time>
      </trkpt>
      <trkpt lat="44.17782" lon="6.69905">
        <ele>2034.2</ele>
        <time>2025-06-22T09:42:01.500Z</time>
      </trkpt>
      <trkpt lat="44.17783" lon="6.69912">
        <ele>2034.7</ele>
        <time>2025-06-22T09:42:07Z</time>
      </trkpt>
      <trkpt lat="44.17783" lon="6.6992">
        <ele>2035.4</ele>
        <time>2025-06-22T09:42:12.500Z</time>
      </trkpt>
      <trkpt lat="44.17783" lon="6.69928">
        <ele>2036.1</ele>
        <time>2025-06-22T09:42:18Z</time>
      </trkpt>
      <trkpt lat="44.17782" lon="6.69936">
        <ele>2036.8</ele>
        <time>2025-06-22T09:42:23.999Z</time>
      </trkpt>
      <trkpt lat="44.17782" lon="6.69944">
        <ele>2037.5</ele>
        <time>2025-06-22T09:42:30Z</time>
      </trkpt>
      <trkpt lat="44.1778" lon="6.69952">
        <ele>2038.3</ele>
        <time>2025-06-22T09:42:35.999Z</time>
      </trkpt>
      <trkpt lat="44.17779" lon="6.69959">
        <ele>2039</ele>
        <time>2025-06-22T09:42:42Z</time>
      </trkpt>
      <trkpt lat="44.17778" lon="6.69968">
        <ele>2039.7</ele>
        <time>2025-06-22T09:42:50.999Z</time>
      </trkpt>
      <trkpt lat="44.17777" lon="6.69977">
        <ele>2040.4</ele>
        <time>2025-06-22T09:43:00Z</time>
      </trkpt>
      <trkpt lat="44.17777" lon="6.69983">
        <ele>2040.9</ele>
        <time>2025-06-22T09:43:04.499Z</time>
      </trkpt>
      <trkpt lat="44.17776" lon="6.69989">
        <ele>2041.4</ele>
        <time>2025-06-22T09:43:09Z</time>
      </trkpt>
      <trkpt lat="44.17776" lon="6.69996">
        <ele>2042</ele>
        <time>2025-06-22T09:43:13.499Z</time>
      </trkpt>
      <trkpt lat="44.17775" lon="6.70003">
        <ele>2042.4</ele>
        <time>2025-06-22T09:43:18Z</time>
      </trkpt>
      <trkpt lat="44.17774" lon="6.70015">
        <ele>2043.3</ele>
        <time>2025-06-22T09:43:27Z</time>
      </trkpt>
      <trkpt lat="44.17771" lon="6.7002">
        <ele>2043.8</ele>
        <time>2025-06-22T09:43:31.499Z</time>
      </trkpt>
      <trkpt lat="44.17768" lon="6.70025">
        <ele>2044.3</ele>
        <time>2025-06-22T09:43:36Z</time>
      </trkpt>
      <trkpt lat="44.17765" lon="6.7003">
        <ele>2044.6</ele>
        <time>2025-06-22T09:43:40.999Z</time>
      </trkpt>
      <trkpt lat="44.17762" lon="6.70036">
        <ele>2044.8</ele>
        <time>2025-06-22T09:43:46Z</time>
      </trkpt>
      <trkpt lat="44.17759" lon="6.70041">
        <ele>2045.1</ele>
        <time>2025-06-22T09:43:50.499Z</time>
      </trkpt>
      <trkpt lat="44.17757" lon="6.70047">
        <ele>2045.4</ele>
        <time>2025-06-22T09:43:55Z</time>
      </trkpt>
      <trkpt lat="44.17754" lon="6.70053">
        <ele>2045.8</ele>
        <time>2025-06-22T09:43:59.999Z</time>
      </trkpt>
      <trkpt lat="44.17751" lon="6.70058">
        <ele>2046</ele>
        <time>2025-06-22T09:44:05Z</time>
      </trkpt>
      <trkpt lat="44.17746" lon="6.70069">
        <ele>2046.2</ele>
        <time>2025-06-22T09:44:15Z</time>
      </trkpt>
      <trkpt lat="44.17742" lon="6.70079">
        <ele>2046.3</ele>
        <time>2025-06-22T09:44:30Z</time>
      </trkpt>
      <trkpt lat="44.17744" lon="6.70084">
        <ele>2046.2</ele>
        <time>2025-06-22T09:45:17Z</time>
      </trkpt>
      <trkpt lat="44.17748" lon="6.70088">
        <ele>2045.9</ele>
        <time>2025-06-22T09:45:22.000Z</time>
      </trkpt>
      <trkpt lat="44.17753" lon="6.70091">
        <ele>2045.7</ele>
        <time>2025-06-22T09:45:27Z</time>
      </trkpt>
      <trkpt lat="44.1776" lon="6.70098">
        <ele>2045.7</ele>
        <time>2025-06-22T09:45:44Z</time>
      </trkpt>
      <trkpt lat="44.17755" lon="6.70098">
        <ele>2045.6</ele>
        <time>2025-06-22T09:46:18Z</time>
      </trkpt>
      <trkpt lat="44.1775" lon="6.70096">
        <ele>2045.6</ele>
        <time>2025-06-22T09:46:22.499Z</time>
      </trkpt>
      <trkpt lat="44.17745" lon="6.70094">
        <ele>2045.8</ele>
        <time>2025-06-22T09:46:27Z</time>
      </trkpt>
      <trkpt lat="44.17742" lon="6.70089">
        <ele>2046.1</ele>
        <time>2025-06-22T09:46:31.499Z</time>
      </trkpt>
      <trkpt lat="44.17738" lon="6.70085">
        <ele>2046.4</ele>
        <time>2025-06-22T09:46:36Z</time>
      </trkpt>
      <trkpt lat="44.17735" lon="6.70092">
        <ele>2046.2</ele>
        <time>2025-06-22T09:46:48Z</time>
      </trkpt>
      <trkpt lat="44.17733" lon="6.70098">
        <ele>2046.1</ele>
        <time>2025-06-22T09:46:56.999Z</time>
      </trkpt>
      <trkpt lat="44.1773" lon="6.70103">
        <ele>2046</ele>
        <time>2025-06-22T09:47:06Z</time>
      </trkpt>
      <trkpt lat="44.17727" lon="6.70108">
        <ele>2045.9</ele>
        <time>2025-06-22T09:47:09.999Z</time>
      </trkpt>
      <trkpt lat="44.17724" lon="6.70113">
        <ele>2045.8</ele>
        <time>2025-06-22T09:47:14Z</time>
      </trkpt>
      <trkpt lat="44.1772" lon="6.70121">
        <ele>2045.3</ele>
        <time>2025-06-22T09:47:37Z</time>
      </trkpt>
      <trkpt lat="44.17716" lon="6.70127">
        <ele>2044.9</ele>
        <time>2025-06-22T09:47:41.999Z</time>
      </trkpt>
      <trkpt lat="44.17712" lon="6.70133">
        <ele>2044.4</ele>
        <time>2025-06-22T09:47:47Z</time>
      </trkpt>
      <trkpt lat="44.17706" lon="6.70141">
        <ele>2043.8</ele>
        <time>2025-06-22T09:47:55Z</time>
      </trkpt>
      <trkpt lat="44.17701" lon="6.70144">
        <ele>2043.6</ele>
        <time>2025-06-22T09:47:58.999Z</time>
      </trkpt>
      <trkpt lat="44.17696" lon="6.70147">
        <ele>2043.4</ele>
        <time>2025-06-22T09:48:03Z</time>
      </trkpt>
      <trkpt lat="44.17692" lon="6.70151">
        <ele>2043.1</ele>
        <time>2025-06-22T09:48:06.999Z</time>
      </trkpt>
      <trkpt lat="44.17687" lon="6.70155">
        <ele>2042.8</ele>
        <time>2025-06-22T09:48:11Z</time>
      </trkpt>
      <trkpt lat="44.17682" lon="6.70157">
        <ele>2042.7</ele>
        <time>2025-06-22T09:48:18.500Z</time>
      </trkpt>
      <trkpt lat="44.17677" lon="6.70158">
        <ele>2042.6</ele>
        <time>2025-06-22T09:48:26Z</time>
      </trkpt>
      <trkpt lat="44.17673" lon="6.70161">
        <ele>2042.4</ele>
        <time>2025-06-22T09:48:29.999Z</time>
      </trkpt>
      <trkpt lat="44.17668" lon="6.70164">
        <ele>2042.2</ele>
        <time>2025-06-22T09:48:34Z</time>
      </trkpt>
      <trkpt lat="44.17663" lon="6.70166">
        <ele>2042.1</ele>
        <time>2025-06-22T09:48:38.000Z</time>
      </trkpt>
      <trkpt lat="44.17658" lon="6.70168">
        <ele>2041.9</ele>
        <time>2025-06-22T09:48:42Z</time>
      </trkpt>
      <trkpt lat="44.17653" lon="6.70169">
        <ele>2041.8</ele>
        <time>2025-06-22T09:48:46.000Z</time>
      </trkpt>
      <trkpt lat="44.17649" lon="6.70171">
        <ele>2041.6</ele>
        <time>2025-06-22T09:48:50Z</time>
      </trkpt>
      <trkpt lat="44.17644" lon="6.70172">
        <ele>2041.6</ele>
        <time>2025-06-22T09:48:54.000Z</time>
      </trkpt>
      <trkpt lat="44.1764" lon="6.70173">
        <ele>2041.5</ele>
        <time>2025-06-22T09:48:58Z</time>
      </trkpt>
      <trkpt lat="44.17632" lon="6.70172">
        <ele>2041.4</ele>
        <time>2025-06-22T09:49:19Z</time>
      </trkpt>
      <trkpt lat="44.17626" lon="6.70173">
        <ele>2041.1</ele>
        <time>2025-06-22T09:49:24.000Z</time>
      </trkpt>
      <trkpt lat="44.17621" lon="6.70174">
        <ele>2040.8</ele>
        <time>2025-06-22T09:49:29Z</time>
      </trkpt>
      <trkpt lat="44.17612" lon="6.70174">
        <ele>2040.5</ele>
        <time>2025-06-22T09:50:10Z</time>
      </trkpt>
      <trkpt lat="44.17611" lon="6.70174">
        <ele>2040.5</ele>
        <time>2025-06-22T09:51:57Z</time>
      </trkpt>
      <trkpt lat="44.17603" lon="6.70173">
        <ele>2040.3</ele>
        <time>2025-06-22T09:52:19Z</time>
      </trkpt>
      <trkpt lat="44.17598" lon="6.70174">
        <ele>2040.1</ele>
        <time>2025-06-22T09:52:27.000Z</time>
      </trkpt>
      <trkpt lat="44.17593" lon="6.70175">
        <ele>2039.9</ele>
        <time>2025-06-22T09:52:35Z</time>
      </trkpt>
      <trkpt lat="44.17588" lon="6.70176">
        <ele>2039.8</ele>
        <time>2025-06-22T09:52:48.999Z</time>
      </trkpt>
      <trkpt lat="44.17584" lon="6.70178">
        <ele>2039.6</ele>
        <time>2025-06-22T09:53:03Z</time>
      </trkpt>
      <trkpt lat="44.17579" lon="6.70175">
        <ele>2039.4</ele>
        <time>2025-06-22T09:53:10.499Z</time>
      </trkpt>
      <trkpt lat="44.17574" lon="6.70173">
        <ele>2039.3</ele>
        <time>2025-06-22T09:53:18Z</time>
      </trkpt>
      <trkpt lat="44.17566" lon="6.70167">
        <ele>2039.3</ele>
        <time>2025-06-22T09:53:29Z</time>
      </trkpt>
      <trkpt lat="44.17562" lon="6.7017">
        <ele>2038.9</ele>
        <time>2025-06-22T09:53:34.999Z</time>
      </trkpt>
      <trkpt lat="44.17558" lon="6.70173">
        <ele>2038.4</ele>
        <time>2025-06-22T09:53:41Z</time>
      </trkpt>
      <trkpt lat="44.17554" lon="6.70178">
        <ele>2037.8</ele>
        <time>2025-06-22T09:53:46.999Z</time>
      </trkpt>
      <trkpt lat="44.1755" lon="6.70183">
        <ele>2037.6</ele>
        <time>2025-06-22T09:53:53Z</time>
      </trkpt>
      <trkpt lat="44.17545" lon="6.70185">
        <ele>2037.7</ele>
        <time>2025-06-22T09:53:58.499Z</time>
      </trkpt>
      <trkpt lat="44.1754" lon="6.70187">
        <ele>2037.8</ele>
        <time>2025-06-22T09:54:04Z</time>
      </trkpt>
      <trkpt lat="44.17531" lon="6.70189">
        <ele>2038.2</ele>
        <time>2025-06-22T09:54:13Z</time>
      </trkpt>
      <trkpt lat="44.17526" lon="6.70191">
        <ele>2038.5</ele>
        <time>2025-06-22T09:54:57Z</time>
      </trkpt>
      <trkpt lat="44.17524" lon="6.70197">
        <ele>2038.4</ele>
        <time>2025-06-22T09:55:02.499Z</time>
      </trkpt>
      <trkpt lat="44.17522" lon="6.70203">
        <ele>2038.2</ele>
        <time>2025-06-22T09:55:08Z</time>
      </trkpt>
      <trkpt lat="44.1752" lon="6.70209">
        <ele>2038.1</ele>
        <time>2025-06-22T09:55:12.999Z</time>
      </trkpt>
      <trkpt lat="44.17518" lon="6.70215">
        <ele>2037.9</ele>
        <time>2025-06-22T09:55:18Z</time>
      </trkpt>
      <trkpt lat="44.17516" lon="6.7022">
        <ele>2037.8</ele>
        <time>2025-06-22T09:55:22.999Z</time>
      </trkpt>
      <trkpt lat="44.17514" lon="6.70226">
        <ele>2037.5</ele>
        <time>2025-06-22T09:55:28Z</time>
      </trkpt>
      <trkpt lat="44.17511" lon="6.70231">
        <ele>2037.4</ele>
        <time>2025-06-22T09:55:32.999Z</time>
      </trkpt>
      <trkpt lat="44.17508" lon="6.70236">
        <ele>2037.3</ele>
        <time>2025-06-22T09:55:38Z</time>
      </trkpt>
      <trkpt lat="44.17503" lon="6.70241">
        <ele>2037.5</ele>
        <time>2025-06-22T09:55:42.999Z</time>
      </trkpt>
      <trkpt lat="44.17499" lon="6.70245">
        <ele>2037.6</ele>
        <time>2025-06-22T09:55:48Z</time>
      </trkpt>
      <trkpt lat="44.17495" lon="6.70247">
        <ele>2037.6</ele>
        <time>2025-06-22T09:55:52.500Z</time>
      </trkpt>
      <trkpt lat="44.1749" lon="6.70249">
        <ele>2037.5</ele>
        <time>2025-06-22T09:55:57Z</time>
      </trkpt>
      <trkpt lat="44.17485" lon="6.70251">
        <ele>2037.4</ele>
        <time>2025-06-22T09:56:01.499Z</time>
      </trkpt>
      <trkpt lat="44.1748" lon="6.70254">
        <ele>2037.2</ele>
        <time>2025-06-22T09:56:06Z</time>
      </trkpt>
      <trkpt lat="44.17477" lon="6.70247">
        <ele>2038.2</ele>
        <time>2025-06-22T09:56:25Z</time>
      </trkpt>
      <trkpt lat="44.17473" lon="6.70251">
        <ele>2037.8</ele>
        <time>2025-06-22T09:56:31.999Z</time>
      </trkpt>
      <trkpt lat="44.17468" lon="6.70256">
        <ele>2037.7</ele>
        <time>2025-06-22T09:56:39Z</time>
      </trkpt>
      <trkpt lat="44.17464" lon="6.70259">
        <ele>2037.8</ele>
        <time>2025-06-22T09:56:43.499Z</time>
      </trkpt>
      <trkpt lat="44.17459" lon="6.70262">
        <ele>2037.9</ele>
        <time>2025-06-22T09:56:48Z</time>
      </trkpt>
      <trkpt lat="44.17456" lon="6.70267">
        <ele>2037.8</ele>
        <time>2025-06-22T09:56:57.499Z</time>
      </trkpt>
      <trkpt lat="44.17452" lon="6.70272">
        <ele>2037.7</ele>
        <time>2025-06-22T09:57:07Z</time>
      </trkpt>
      <trkpt lat="44.17446" lon="6.7028">
        <ele>2037.7</ele>
        <time>2025-06-22T09:57:18Z</time>
      </trkpt>
      <trkpt lat="44.17439" lon="6.70286">
        <ele>2037.8</ele>
        <time>2025-06-22T09:57:32Z</time>
      </trkpt>
      <trkpt lat="44.17435" lon="6.70293">
        <ele>2037.4</ele>
        <time>2025-06-22T09:58:24Z</time>
      </trkpt>
      <trkpt lat="44.17427" lon="6.70296">
        <ele>2037.5</ele>
        <time>2025-06-22T09:58:52Z</time>
      </trkpt>
      <trkpt lat="44.17422" lon="6.70297">
        <ele>2037.6</ele>
        <time>2025-06-22T09:58:58.000Z</time>
      </trkpt>
      <trkpt lat="44.17418" lon="6.70298">
        <ele>2037.7</ele>
        <time>2025-06-22T09:59:04Z</time>
      </trkpt>
      <trkpt lat="44.17409" lon="6.70299">
        <ele>2037.4</ele>
        <time>2025-06-22T09:59:14Z</time>
      </trkpt>
      <trkpt lat="44.17405" lon="6.70301">
        <ele>2037.1</ele>
        <time>2025-06-22T09:59:19.999Z</time>
      </trkpt>
      <trkpt lat="44.174" lon="6.70303">
        <ele>2036.7</ele>
        <time>2025-06-22T09:59:26Z</time>
      </trkpt>
      <trkpt lat="44.17395" lon="6.70303">
        <ele>2036.5</ele>
        <time>2025-06-22T09:59:35.000Z</time>
      </trkpt>
      <trkpt lat="44.17389" lon="6.70304">
        <ele>2036.2</ele>
        <time>2025-06-22T09:59:44Z</time>
      </trkpt>
      <trkpt lat="44.17385" lon="6.70301">
        <ele>2036.6</ele>
        <time>2025-06-22T09:59:49.499Z</time>
      </trkpt>
      <trkpt lat="44.17381" lon="6.70297">
        <ele>2037.1</ele>
        <time>2025-06-22T09:59:55Z</time>
      </trkpt>
      <trkpt lat="44.17372" lon="6.70298">
        <ele>2037.1</ele>
        <time>2025-06-22T10:00:06Z</time>
      </trkpt>
      <trkpt lat="44.17369" lon="6.70302">
        <ele>2036.5</ele>
        <time>2025-06-22T10:00:10.499Z</time>
      </trkpt>
      <trkpt lat="44.17365" lon="6.70306">
        <ele>2036</ele>
        <time>2025-06-22T10:00:15Z</time>
      </trkpt>
      <trkpt lat="44.17357" lon="6.70312">
        <ele>2036</ele>
        <time>2025-06-22T10:00:24Z</time>
      </trkpt>
      <trkpt lat="44.17353" lon="6.70316">
        <ele>2036.2</ele>
        <time>2025-06-22T10:00:34.999Z</time>
      </trkpt>
      <trkpt lat="44.1735" lon="6.7032">
        <ele>2036.4</ele>
        <time>2025-06-22T10:00:46Z</time>
      </trkpt>
      <trkpt lat="44.17346" lon="6.70322">
        <ele>2036.8</ele>
        <time>2025-06-22T10:01:31Z</time>
      </trkpt>
      <trkpt lat="44.17338" lon="6.70325">
        <ele>2037.6</ele>
        <time>2025-06-22T10:01:54Z</time>
      </trkpt>
      <trkpt lat="44.17337" lon="6.70328">
        <ele>2037.7</ele>
        <time>2025-06-22T10:02:55Z</time>
      </trkpt>
      <trkpt lat="44.17333" lon="6.70338">
        <ele>2038.2</ele>
        <time>2025-06-22T10:03:04Z</time>
      </trkpt>
      <trkpt lat="44.1733" lon="6.70343">
        <ele>2038.5</ele>
        <time>2025-06-22T10:03:10.499Z</time>
      </trkpt>
      <trkpt lat="44.17328" lon="6.70349">
        <ele>2038.9</ele>
        <time>2025-06-22T10:03:17Z</time>
      </trkpt>
      <trkpt lat="44.17326" lon="6.70353">
        <ele>2039.4</ele>
        <time>2025-06-22T10:03:51Z</time>
      </trkpt>
      <trkpt lat="44.17323" lon="6.70359">
        <ele>2039.8</ele>
        <time>2025-06-22T10:03:56.499Z</time>
      </trkpt>
      <trkpt lat="44.17321" lon="6.70366">
        <ele>2040.4</ele>
        <time>2025-06-22T10:04:02Z</time>
      </trkpt>
      <trkpt lat="44.17318" lon="6.70371">
        <ele>2041.2</ele>
        <time>2025-06-22T10:04:06.999Z</time>
      </trkpt>
      <trkpt lat="44.17314" lon="6.70377">
        <ele>2042</ele>
        <time>2025-06-22T10:04:12Z</time>
      </trkpt>
      <trkpt lat="44.1731" lon="6.70381">
        <ele>2043</ele>
        <time>2025-06-22T10:04:16.999Z</time>
      </trkpt>
      <trkpt lat="44.17305" lon="6.70385">
        <ele>2043.9</ele>
        <time>2025-06-22T10:04:22Z</time>
      </trkpt>
      <trkpt lat="44.17301" lon="6.70389">
        <ele>2044.3</ele>
        <time>2025-06-22T10:04:26.999Z</time>
      </trkpt>
      <trkpt lat="44.17298" lon="6.70393">
        <ele>2044.5</ele>
        <time>2025-06-22T10:04:32Z</time>
      </trkpt>
      <trkpt lat="44.17293" lon="6.70395">
        <ele>2044.8</ele>
        <time>2025-06-22T10:04:36.999Z</time>
      </trkpt>
      <trkpt lat="44.17288" lon="6.70398">
        <ele>2045.1</ele>
        <time>2025-06-22T10:04:42Z</time>
      </trkpt>
      <trkpt lat="44.17282" lon="6.70399">
        <ele>2045.4</ele>
        <time>2025-06-22T10:04:46.500Z</time>
      </trkpt>
      <trkpt lat="44.17277" lon="6.704">
        <ele>2045.6</ele>
        <time>2025-06-22T10:04:51Z</time>
      </trkpt>
      <trkpt lat="44.17272" lon="6.704">
        <ele>2045.6</ele>
        <time>2025-06-22T10:04:56.500Z</time>
      </trkpt>
      <trkpt lat="44.17268" lon="6.704">
        <ele>2045.7</ele>
        <time>2025-06-22T10:05:02Z</time>
      </trkpt>
      <trkpt lat="44.17262" lon="6.70402">
        <ele>2045.6</ele>
        <time>2025-06-22T10:05:06.500Z</time>
      </trkpt>
      <trkpt lat="44.17257" lon="6.70403">
        <ele>2045.5</ele>
        <time>2025-06-22T10:05:11Z</time>
      </trkpt>
      <trkpt lat="44.17252" lon="6.7041">
        <ele>2044.8</ele>
        <time>2025-06-22T10:05:19Z</time>
      </trkpt>
      <trkpt lat="44.17247" lon="6.70418">
        <ele>2044.2</ele>
        <time>2025-06-22T10:05:27Z</time>
      </trkpt>
      <trkpt lat="44.17242" lon="6.70421">
        <ele>2044.1</ele>
        <time>2025-06-22T10:05:31.499Z</time>
      </trkpt>
      <trkpt lat="44.17238" lon="6.70425">
        <ele>2044</ele>
        <time>2025-06-22T10:05:36Z</time>
      </trkpt>
      <trkpt lat="44.17232" lon="6.70428">
        <ele>2044</ele>
        <time>2025-06-22T10:05:40.499Z</time>
      </trkpt>
      <trkpt lat="44.17226" lon="6.7043">
        <ele>2043.9</ele>
        <time>2025-06-22T10:05:45Z</time>
      </trkpt>
      <trkpt lat="44.17221" lon="6.70429">
        <ele>2044.3</ele>
        <time>2025-06-22T10:05:51.499Z</time>
      </trkpt>
      <trkpt lat="44.17216" lon="6.70427">
        <ele>2044.4</ele>
        <time>2025-06-22T10:05:58Z</time>
      </trkpt>
      <trkpt lat="44.1721" lon="6.70426">
        <ele>2044.5</ele>
        <time>2025-06-22T10:06:02.500Z</time>
      </trkpt>
      <trkpt lat="44.17204" lon="6.70425">
        <ele>2044.6</ele>
        <time>2025-06-22T10:06:07Z</time>
      </trkpt>
      <trkpt lat="44.17199" lon="6.70424">
        <ele>2044.8</ele>
        <time>2025-06-22T10:06:11.500Z</time>
      </trkpt>
      <trkpt lat="44.17194" lon="6.70422">
        <ele>2045</ele>
        <time>2025-06-22T10:06:16Z</time>
      </trkpt>
      <trkpt lat="44.17189" lon="6.70422">
        <ele>2045.1</ele>
        <time>2025-06-22T10:06:21.000Z</time>
      </trkpt>
      <trkpt lat="44.17184" lon="6.70422">
        <ele>2045.2</ele>
        <time>2025-06-22T10:06:26Z</time>
      </trkpt>
      <trkpt lat="44.17179" lon="6.70422">
        <ele>2045.3</ele>
        <time>2025-06-22T10:06:30.500Z</time>
      </trkpt>
      <trkpt lat="44.17174" lon="6.70422">
        <ele>2045.4</ele>
        <time>2025-06-22T10:06:35Z</time>
      </trkpt>
      <trkpt lat="44.17171" lon="6.70426">
        <ele>2044.9</ele>
        <time>2025-06-22T10:06:40.999Z</time>
      </trkpt>
      <trkpt lat="44.17167" lon="6.70431">
        <ele>2044.5</ele>
        <time>2025-06-22T10:06:47Z</time>
      </trkpt>
      <trkpt lat="44.17165" lon="6.70436">
        <ele>2044.5</ele>
        <time>2025-06-22T10:06:51.499Z</time>
      </trkpt>
      <trkpt lat="44.17162" lon="6.70441">
        <ele>2044.7</ele>
        <time>2025-06-22T10:06:56Z</time>
      </trkpt>
      <trkpt lat="44.1716" lon="6.70448">
        <ele>2044.7</ele>
        <time>2025-06-22T10:07:00.499Z</time>
      </trkpt>
      <trkpt lat="44.17159" lon="6.70454">
        <ele>2044.8</ele>
        <time>2025-06-22T10:07:05Z</time>
      </trkpt>
      <trkpt lat="44.17157" lon="6.70466">
        <ele>2044.5</ele>
        <time>2025-06-22T10:07:15Z</time>
      </trkpt>
      <trkpt lat="44.17153" lon="6.70473">
        <ele>2044.9</ele>
        <time>2025-06-22T10:07:19.999Z</time>
      </trkpt>
      <trkpt lat="44.1715" lon="6.70479">
        <ele>2045.6</ele>
        <time>2025-06-22T10:07:25Z</time>
      </trkpt>
      <trkpt lat="44.17144" lon="6.70486">
        <ele>2046.6</ele>
        <time>2025-06-22T10:07:35Z</time>
      </trkpt>
      <trkpt lat="44.1714" lon="6.70491">
        <ele>2047.1</ele>
        <time>2025-06-22T10:07:40.999Z</time>
      </trkpt>
      <trkpt lat="44.17137" lon="6.70496">
        <ele>2047.6</ele>
        <time>2025-06-22T10:07:47Z</time>
      </trkpt>
      <trkpt lat="44.17132" lon="6.70498">
        <ele>2048.5</ele>
        <time>2025-06-22T10:07:53.499Z</time>
      </trkpt>
      <trkpt lat="44.17127" lon="6.70501">
        <ele>2049.5</ele>
        <time>2025-06-22T10:08:00Z</time>
      </trkpt>
      <trkpt lat="44.17123" lon="6.705">
        <ele>2050.5</ele>
        <time>2025-06-22T10:08:09.000Z</time>
      </trkpt>
      <trkpt lat="44.17118" lon="6.705">
        <ele>2051.6</ele>
        <time>2025-06-22T10:08:18Z</time>
      </trkpt>
      <trkpt lat="44.1711" lon="6.70498">
        <ele>2053.1</ele>
        <time>2025-06-22T10:08:42Z</time>
      </trkpt>
      <trkpt lat="44.17103" lon="6.70493">
        <ele>2053.2</ele>
        <time>2025-06-22T10:09:07Z</time>
      </trkpt>
      <trkpt lat="44.17102" lon="6.70501">
        <ele>2053</ele>
        <time>2025-06-22T10:09:48Z</time>
      </trkpt>
      <trkpt lat="44.17101" lon="6.70508">
        <ele>2052.9</ele>
        <time>2025-06-22T10:10:05Z</time>
      </trkpt>
      <trkpt lat="44.17098" lon="6.70514">
        <ele>2053</ele>
        <time>2025-06-22T10:10:10.499Z</time>
      </trkpt>
      <trkpt lat="44.17096" lon="6.70521">
        <ele>2053.1</ele>
        <time>2025-06-22T10:10:16Z</time>
      </trkpt>
      <trkpt lat="44.17093" lon="6.70528">
        <ele>2053.3</ele>
        <time>2025-06-22T10:10:20.499Z</time>
      </trkpt>
      <trkpt lat="44.17091" lon="6.70535">
        <ele>2054.1</ele>
        <time>2025-06-22T10:10:25Z</time>
      </trkpt>
      <trkpt lat="44.17089" lon="6.70542">
        <ele>2055</ele>
        <time>2025-06-22T10:10:30.999Z</time>
      </trkpt>
      <trkpt lat="44.17087" lon="6.70549">
        <ele>2055.9</ele>
        <time>2025-06-22T10:10:37Z</time>
      </trkpt>
      <trkpt lat="44.17085" lon="6.70555">
        <ele>2056.8</ele>
        <time>2025-06-22T10:10:42.999Z</time>
      </trkpt>
      <trkpt lat="44.17083" lon="6.70561">
        <ele>2057.4</ele>
        <time>2025-06-22T10:10:49Z</time>
      </trkpt>
      <trkpt lat="44.1708" lon="6.70566">
        <ele>2057.7</ele>
        <time>2025-06-22T10:10:56.499Z</time>
      </trkpt>
      <trkpt lat="44.17078" lon="6.70572">
        <ele>2058.2</ele>
        <time>2025-06-22T10:11:04Z</time>
      </trkpt>
      <trkpt lat="44.17075" lon="6.70577">
        <ele>2058.7</ele>
        <time>2025-06-22T10:11:09.999Z</time>
      </trkpt>
      <trkpt lat="44.17073" lon="6.70583">
        <ele>2059.3</ele>
        <time>2025-06-22T10:11:16Z</time>
      </trkpt>
      <trkpt lat="44.17072" lon="6.70589">
        <ele>2059.8</ele>
        <time>2025-06-22T10:11:21.999Z</time>
      </trkpt>
      <trkpt lat="44.1707" lon="6.70595">
        <ele>2060.3</ele>
        <time>2025-06-22T10:11:28Z</time>
      </trkpt>
      <trkpt lat="44.17066" lon="6.70606">
        <ele>2061.4</ele>
        <time>2025-06-22T10:11:38Z</time>
      </trkpt>
      <trkpt lat="44.17063" lon="6.70617">
        <ele>2062.1</ele>
        <time>2025-06-22T10:11:47Z</time>
      </trkpt>
      <trkpt lat="44.1706" lon="6.70628">
        <ele>2062.3</ele>
        <time>2025-06-22T10:11:58Z</time>
      </trkpt>
      <trkpt lat="44.17058" lon="6.70635">
        <ele>2062.6</ele>
        <time>2025-06-22T10:12:02.999Z</time>
      </trkpt>
      <trkpt lat="44.17056" lon="6.70642">
        <ele>2062.9</ele>
        <time>2025-06-22T10:12:08Z</time>
      </trkpt>
      <trkpt lat="44.17053" lon="6.70647">
        <ele>2062.6</ele>
        <time>2025-06-22T10:12:12.499Z</time>
      </trkpt>
      <trkpt lat="44.1705" lon="6.70653">
        <ele>2062.3</ele>
        <time>2025-06-22T10:12:17Z</time>
      </trkpt>
      <trkpt lat="44.17044" lon="6.70661">
        <ele>2061.9</ele>
        <time>2025-06-22T10:12:24Z</time>
      </trkpt>
      <trkpt lat="44.1704" lon="6.7067">
        <ele>2062.2</ele>
        <time>2025-06-22T10:12:32Z</time>
      </trkpt>
      <trkpt lat="44.17039" lon="6.70676">
        <ele>2062.8</ele>
        <time>2025-06-22T10:12:36.499Z</time>
      </trkpt>
      <trkpt lat="44.17039" lon="6.70683">
        <ele>2063.4</ele>
        <time>2025-06-22T10:12:41Z</time>
      </trkpt>
      <trkpt lat="44.17037" lon="6.70695">
        <ele>2064.7</ele>
        <time>2025-06-22T10:12:56Z</time>
      </trkpt>
      <trkpt lat="44.17038" lon="6.70702">
        <ele>2066.2</ele>
        <time>2025-06-22T10:13:03.000Z</time>
      </trkpt>
      <trkpt lat="44.17039" lon="6.70709">
        <ele>2067.6</ele>
        <time>2025-06-22T10:13:10Z</time>
      </trkpt>
      <trkpt lat="44.17041" lon="6.70714">
        <ele>2068.8</ele>
        <time>2025-06-22T10:13:17.500Z</time>
      </trkpt>
      <trkpt lat="44.17043" lon="6.7072">
        <ele>2070</ele>
        <time>2025-06-22T10:13:25Z</time>
      </trkpt>
      <trkpt lat="44.17044" lon="6.70727">
        <ele>2071.3</ele>
        <time>2025-06-22T10:13:32.000Z</time>
      </trkpt>
      <trkpt lat="44.17045" lon="6.70734">
        <ele>2072.6</ele>
        <time>2025-06-22T10:13:39Z</time>
      </trkpt>
      <trkpt lat="44.17041" lon="6.70739">
        <ele>2073.8</ele>
        <time>2025-06-22T10:13:45.999Z</time>
      </trkpt>
      <trkpt lat="44.17038" lon="6.70743">
        <ele>2075.2</ele>
        <time>2025-06-22T10:13:53Z</time>
      </trkpt>
      <trkpt lat="44.17031" lon="6.70751">
        <ele>2077.7</ele>
        <time>2025-06-22T10:14:08Z</time>
      </trkpt>
      <trkpt lat="44.17029" lon="6.70757">
        <ele>2079.1</ele>
        <time>2025-06-22T10:14:14.499Z</time>
      </trkpt>
      <trkpt lat="44.17026" lon="6.70762">
        <ele>2079.8</ele>
        <time>2025-06-22T10:14:21Z</time>
      </trkpt>
      <trkpt lat="44.17025" lon="6.70769">
        <ele>2080.8</ele>
        <time>2025-06-22T10:14:27.499Z</time>
      </trkpt>
      <trkpt lat="44.17024" lon="6.70776">
        <ele>2082</ele>
        <time>2025-06-22T10:14:34Z</time>
      </trkpt>
      <trkpt lat="44.1702" lon="6.70786">
        <ele>2083.3</ele>
        <time>2025-06-22T10:14:48Z</time>
      </trkpt>
      <trkpt lat="44.17018" lon="6.70792">
        <ele>2084.5</ele>
        <time>2025-06-22T10:14:56.999Z</time>
      </trkpt>
      <trkpt lat="44.17017" lon="6.70799">
        <ele>2085.9</ele>
        <time>2025-06-22T10:15:06Z</time>
      </trkpt>
      <trkpt lat="44.17015" lon="6.70808">
        <ele>2087.8</ele>
        <time>2025-06-22T10:15:24Z</time>
      </trkpt>
      <trkpt lat="44.17013" lon="6.70813">
        <ele>2088.3</ele>
        <time>2025-06-22T10:15:45Z</time>
      </trkpt>
      <trkpt lat="44.17008" lon="6.70814">
        <ele>2088.1</ele>
        <time>2025-06-22T10:15:54.500Z</time>
      </trkpt>
      <trkpt lat="44.17003" lon="6.70814">
        <ele>2088</ele>
        <time>2025-06-22T10:16:04Z</time>
      </trkpt>
      <trkpt lat="44.17002" lon="6.7082">
        <ele>2088.7</ele>
        <time>2025-06-22T10:16:09.499Z</time>
      </trkpt>
      <trkpt lat="44.17" lon="6.70827">
        <ele>2089.3</ele>
        <time>2025-06-22T10:16:15Z</time>
      </trkpt>
      <trkpt lat="44.16997" lon="6.70833">
        <ele>2088.2</ele>
        <time>2025-06-22T10:16:37Z</time>
      </trkpt>
      <trkpt lat="44.16999" lon="6.70832">
        <ele>2089.1</ele>
        <time>2025-06-22T10:16:59Z</time>
      </trkpt>
      <trkpt lat="44.16996" lon="6.70832">
        <ele>2088</ele>
        <time>2025-06-22T10:17:53Z</time>
      </trkpt>
      <trkpt lat="44.17002" lon="6.70834">
        <ele>2090</ele>
        <time>2025-06-22T10:18:21Z</time>
      </trkpt>
      <trkpt lat="44.17" lon="6.7084">
        <ele>2089.8</ele>
        <time>2025-06-22T10:18:40Z</time>
      </trkpt>
      <trkpt lat="44.17001" lon="6.70837">
        <ele>2089.9</ele>
        <time>2025-06-22T10:19:18Z</time>
      </trkpt>
      <trkpt lat="44.17004" lon="6.70839">
        <ele>2090</ele>
        <time>2025-06-22T10:20:08Z</time>
      </trkpt>
      <trkpt lat="44.17006" lon="6.70846">
        <ele>2089.9</ele>
        <time>2025-06-22T10:20:38Z</time>
      </trkpt>
      <trkpt lat="44.17009" lon="6.70851">
        <ele>2089.9</ele>
        <time>2025-06-22T10:20:45.000Z</time>
      </trkpt>
      <trkpt lat="44.17013" lon="6.70855">
        <ele>2090</ele>
        <time>2025-06-22T10:20:52Z</time>
      </trkpt>
      <trkpt lat="44.17018" lon="6.70854">
        <ele>2090.3</ele>
        <time>2025-06-22T10:20:57.500Z</time>
      </trkpt>
      <trkpt lat="44.17022" lon="6.70853">
        <ele>2090.6</ele>
        <time>2025-06-22T10:21:03Z</time>
      </trkpt>
      <trkpt lat="44.17027" lon="6.70849">
        <ele>2090.9</ele>
        <time>2025-06-22T10:21:09.500Z</time>
      </trkpt>
      <trkpt lat="44.17031" lon="6.70845">
        <ele>2090.7</ele>
        <time>2025-06-22T10:21:16Z</time>
      </trkpt>
      <trkpt lat="44.17036" lon="6.70843">
        <ele>2090.2</ele>
        <time>2025-06-22T10:21:24.000Z</time>
      </trkpt>
      <trkpt lat="44.1704" lon="6.7084">
        <ele>2089.7</ele>
        <time>2025-06-22T10:21:32Z</time>
      </trkpt>
      <trkpt lat="44.17045" lon="6.70837">
        <ele>2088.9</ele>
        <time>2025-06-22T10:21:39.000Z</time>
      </trkpt>
      <trkpt lat="44.17049" lon="6.70833">
        <ele>2088</ele>
        <time>2025-06-22T10:21:46Z</time>
      </trkpt>
      <trkpt lat="44.17053" lon="6.70831">
        <ele>2086.8</ele>
        <time>2025-06-22T10:21:53.000Z</time>
      </trkpt>
      <trkpt lat="44.17058" lon="6.70828">
        <ele>2085.6</ele>
        <time>2025-06-22T10:22:00Z</time>
      </trkpt>
      <trkpt lat="44.17055" lon="6.70822">
        <ele>2084.7</ele>
        <time>2025-06-22T10:22:09.499Z</time>
      </trkpt>
      <trkpt lat="44.17053" lon="6.70817">
        <ele>2084.1</ele>
        <time>2025-06-22T10:22:19Z</time>
      </trkpt>
      <trkpt lat="44.17053" lon="6.70812">
        <ele>2082.9</ele>
        <time>2025-06-22T10:23:01Z</time>
      </trkpt>
      <trkpt lat="44.17055" lon="6.7081">
        <ele>2082.1</ele>
        <time>2025-06-22T10:23:24Z</time>
      </trkpt>
      <trkpt lat="44.17052" lon="6.70809">
        <ele>2082.7</ele>
        <time>2025-06-22T10:24:29Z</time>
      </trkpt>
      <trkpt lat="44.17055" lon="6.70811">
        <ele>2082.3</ele>
        <time>2025-06-22T11:08:13Z</time>
      </trkpt>
      <trkpt lat="44.1706" lon="6.70809">
        <ele>2081.1</ele>
        <time>2025-06-22T11:08:22.000Z</time>
      </trkpt>
      <trkpt lat="44.17064" lon="6.70806">
        <ele>2079.9</ele>
        <time>2025-06-22T11:08:31Z</time>
      </trkpt>
      <trkpt lat="44.17068" lon="6.70805">
        <ele>2079</ele>
        <time>2025-06-22T11:08:38.500Z</time>
      </trkpt>
      <trkpt lat="44.17073" lon="6.70803">
        <ele>2078.1</ele>
        <time>2025-06-22T11:08:46Z</time>
      </trkpt>
      <trkpt lat="44.17078" lon="6.70802">
        <ele>2077.1</ele>
        <time>2025-06-22T11:08:53.000Z</time>
      </trkpt>
      <trkpt lat="44.17083" lon="6.70801">
        <ele>2076</ele>
        <time>2025-06-22T11:09:00Z</time>
      </trkpt>
      <trkpt lat="44.17087" lon="6.70799">
        <ele>2075.2</ele>
        <time>2025-06-22T11:09:06.500Z</time>
      </trkpt>
      <trkpt lat="44.17092" lon="6.70797">
        <ele>2074.4</ele>
        <time>2025-06-22T11:09:13Z</time>
      </trkpt>
      <trkpt lat="44.171" lon="6.70791">
        <ele>2072.5</ele>
        <time>2025-06-22T11:09:28Z</time>
      </trkpt>
      <trkpt lat="44.17104" lon="6.70792">
        <ele>2072.2</ele>
        <time>2025-06-22T11:09:34.500Z</time>
      </trkpt>
      <trkpt lat="44.17109" lon="6.70792">
        <ele>2071.9</ele>
        <time>2025-06-22T11:09:41Z</time>
      </trkpt>
      <trkpt lat="44.17113" lon="6.70792">
        <ele>2071.5</ele>
        <time>2025-06-22T11:09:48.500Z</time>
      </trkpt>
      <trkpt lat="44.17118" lon="6.70792">
        <ele>2071.1</ele>
        <time>2025-06-22T11:09:56Z</time>
      </trkpt>
      <trkpt lat="44.17112" lon="6.70789">
        <ele>2070.8</ele>
        <time>2025-06-22T11:10:03.499Z</time>
      </trkpt>
      <trkpt lat="44.17107" lon="6.70786">
        <ele>2070.6</ele>
        <time>2025-06-22T11:10:11Z</time>
      </trkpt>
      <trkpt lat="44.17102" lon="6.70782">
        <ele>2070</ele>
        <time>2025-06-22T11:10:16.999Z</time>
      </trkpt>
      <trkpt lat="44.17098" lon="6.70778">
        <ele>2069.5</ele>
        <time>2025-06-22T11:10:23Z</time>
      </trkpt>
      <trkpt lat="44.17093" lon="6.70773">
        <ele>2069</ele>
        <time>2025-06-22T11:10:29.999Z</time>
      </trkpt>
      <trkpt lat="44.17089" lon="6.70767">
        <ele>2068.7</ele>
        <time>2025-06-22T11:10:37Z</time>
      </trkpt>
      <trkpt lat="44.17086" lon="6.70761">
        <ele>2068.2</ele>
        <time>2025-06-22T11:10:44.999Z</time>
      </trkpt>
      <trkpt lat="44.17084" lon="6.70755">
        <ele>2067.7</ele>
        <time>2025-06-22T11:10:53Z</time>
      </trkpt>
      <trkpt lat="44.17081" lon="6.7075">
        <ele>2067.6</ele>
        <time>2025-06-22T11:10:58.999Z</time>
      </trkpt>
      <trkpt lat="44.17078" lon="6.70744">
        <ele>2067.7</ele>
        <time>2025-06-22T11:11:05Z</time>
      </trkpt>
      <trkpt lat="44.17077" lon="6.70733">
        <ele>2066.7</ele>
        <time>2025-06-22T11:11:50Z</time>
      </trkpt>
      <trkpt lat="44.17075" lon="6.70726">
        <ele>2066.3</ele>
        <time>2025-06-22T11:12:01.499Z</time>
      </trkpt>
      <trkpt lat="44.17073" lon="6.70719">
        <ele>2065.7</ele>
        <time>2025-06-22T11:12:13Z</time>
      </trkpt>
      <trkpt lat="44.17068" lon="6.70712">
        <ele>2065.5</ele>
        <time>2025-06-22T11:12:18.999Z</time>
      </trkpt>
      <trkpt lat="44.17063" lon="6.70705">
        <ele>2065</ele>
        <time>2025-06-22T11:12:25Z</time>
      </trkpt>
      <trkpt lat="44.1706" lon="6.707">
        <ele>2064.4</ele>
        <time>2025-06-22T11:12:30.499Z</time>
      </trkpt>
      <trkpt lat="44.17057" lon="6.70694">
        <ele>2063.8</ele>
        <time>2025-06-22T11:12:36Z</time>
      </trkpt>
      <trkpt lat="44.17057" lon="6.70683">
        <ele>2063.4</ele>
        <time>2025-06-22T11:12:46Z</time>
      </trkpt>
      <trkpt lat="44.17057" lon="6.70677">
        <ele>2063</ele>
        <time>2025-06-22T11:12:51.500Z</time>
      </trkpt>
      <trkpt lat="44.17058" lon="6.7067">
        <ele>2062.7</ele>
        <time>2025-06-22T11:12:57Z</time>
      </trkpt>
      <trkpt lat="44.17057" lon="6.70658">
        <ele>2062.7</ele>
        <time>2025-06-22T11:13:27Z</time>
      </trkpt>
      <trkpt lat="44.17059" lon="6.70653">
        <ele>2062.4</ele>
        <time>2025-06-22T11:13:33.000Z</time>
      </trkpt>
      <trkpt lat="44.1706" lon="6.70647">
        <ele>2062.1</ele>
        <time>2025-06-22T11:13:39Z</time>
      </trkpt>
      <trkpt lat="44.17065" lon="6.70638">
        <ele>2061.4</ele>
        <time>2025-06-22T11:14:28Z</time>
      </trkpt>
      <trkpt lat="44.17062" lon="6.70628">
        <ele>2062.1</ele>
        <time>2025-06-22T11:14:38Z</time>
      </trkpt>
      <trkpt lat="44.17064" lon="6.70622">
        <ele>2061.9</ele>
        <time>2025-06-22T11:14:42.000Z</time>
      </trkpt>
      <trkpt lat="44.17066" lon="6.70616">
        <ele>2061.7</ele>
        <time>2025-06-22T11:14:46Z</time>
      </trkpt>
      <trkpt lat="44.17068" lon="6.7061">
        <ele>2061.5</ele>
        <time>2025-06-22T11:14:50.500Z</time>
      </trkpt>
      <trkpt lat="44.1707" lon="6.70604">
        <ele>2060.9</ele>
        <time>2025-06-22T11:14:55Z</time>
      </trkpt>
      <trkpt lat="44.17073" lon="6.70598">
        <ele>2060.3</ele>
        <time>2025-06-22T11:14:59.500Z</time>
      </trkpt>
      <trkpt lat="44.17076" lon="6.70593">
        <ele>2059.8</ele>
        <time>2025-06-22T11:15:04Z</time>
      </trkpt>
      <trkpt lat="44.17077" lon="6.70585">
        <ele>2059.3</ele>
        <time>2025-06-22T11:15:08.500Z</time>
      </trkpt>
      <trkpt lat="44.17079" lon="6.70577">
        <ele>2058.7</ele>
        <time>2025-06-22T11:15:13Z</time>
      </trkpt>
      <trkpt lat="44.17081" lon="6.70572">
        <ele>2058.2</ele>
        <time>2025-06-22T11:15:17.500Z</time>
      </trkpt>
      <trkpt lat="44.17084" lon="6.70566">
        <ele>2057.7</ele>
        <time>2025-06-22T11:15:22Z</time>
      </trkpt>
      <trkpt lat="44.17085" lon="6.7056">
        <ele>2057</ele>
        <time>2025-06-22T11:15:26.000Z</time>
      </trkpt>
      <trkpt lat="44.17087" lon="6.70554">
        <ele>2056.3</ele>
        <time>2025-06-22T11:15:30Z</time>
      </trkpt>
      <trkpt lat="44.17089" lon="6.70547">
        <ele>2055.5</ele>
        <time>2025-06-22T11:15:34.000Z</time>
      </trkpt>
      <trkpt lat="44.17091" lon="6.70541">
        <ele>2054.7</ele>
        <time>2025-06-22T11:15:38Z</time>
      </trkpt>
      <trkpt lat="44.17096" lon="6.70532">
        <ele>2053.4</ele>
        <time>2025-06-22T11:15:45Z</time>
      </trkpt>
      <trkpt lat="44.17098" lon="6.70526">
        <ele>2053</ele>
        <time>2025-06-22T11:15:49.000Z</time>
      </trkpt>
      <trkpt lat="44.171" lon="6.7052">
        <ele>2052.9</ele>
        <time>2025-06-22T11:15:53Z</time>
      </trkpt>
      <trkpt lat="44.17103" lon="6.70508">
        <ele>2052.9</ele>
        <time>2025-06-22T11:16:01Z</time>
      </trkpt>
      <trkpt lat="44.17106" lon="6.70497">
        <ele>2053.1</ele>
        <time>2025-06-22T11:16:12Z</time>
      </trkpt>
      <trkpt lat="44.17107" lon="6.7049">
        <ele>2053.3</ele>
        <time>2025-06-22T11:16:21.000Z</time>
      </trkpt>
      <trkpt lat="44.17107" lon="6.70483">
        <ele>2053.5</ele>
        <time>2025-06-22T11:16:30Z</time>
      </trkpt>
      <trkpt lat="44.17106" lon="6.70476">
        <ele>2053.7</ele>
        <time>2025-06-22T11:16:35.999Z</time>
      </trkpt>
      <trkpt lat="44.17105" lon="6.70468">
        <ele>2054.1</ele>
        <time>2025-06-22T11:16:42Z</time>
      </trkpt>
      <trkpt lat="44.17105" lon="6.70462">
        <ele>2054.5</ele>
        <time>2025-06-22T11:16:57.999Z</time>
      </trkpt>
      <trkpt lat="44.17105" lon="6.70455">
        <ele>2055</ele>
        <time>2025-06-22T11:17:14Z</time>
      </trkpt>
      <trkpt lat="44.17102" lon="6.70449">
        <ele>2055.3</ele>
        <time>2025-06-22T11:17:18.999Z</time>
      </trkpt>
      <trkpt lat="44.17099" lon="6.70444">
        <ele>2055.6</ele>
        <time>2025-06-22T11:17:24Z</time>
      </trkpt>
      <trkpt lat="44.17095" lon="6.70438">
        <ele>2055.9</ele>
        <time>2025-06-22T11:17:28.499Z</time>
      </trkpt>
      <trkpt lat="44.17092" lon="6.70432">
        <ele>2056.2</ele>
        <time>2025-06-22T11:17:33Z</time>
      </trkpt>
      <trkpt lat="44.17091" lon="6.70425">
        <ele>2056.7</ele>
        <time>2025-06-22T11:17:38.499Z</time>
      </trkpt>
      <trkpt lat="44.1709" lon="6.70417">
        <ele>2057.2</ele>
        <time>2025-06-22T11:17:44Z</time>
      </trkpt>
      <trkpt lat="44.17088" lon="6.70411">
        <ele>2057.6</ele>
        <time>2025-06-22T11:17:48.999Z</time>
      </trkpt>
      <trkpt lat="44.17085" lon="6.70405">
        <ele>2057.9</ele>
        <time>2025-06-22T11:17:54Z</time>
      </trkpt>
      <trkpt lat="44.17083" lon="6.70399">
        <ele>2058.3</ele>
        <time>2025-06-22T11:17:59.999Z</time>
      </trkpt>
      <trkpt lat="44.17081" lon="6.70393">
        <ele>2058.6</ele>
        <time>2025-06-22T11:18:06Z</time>
      </trkpt>
      <trkpt lat="44.17075" lon="6.70385">
        <ele>2058.8</ele>
        <time>2025-06-22T11:18:18Z</time>
      </trkpt>
      <trkpt lat="44.17071" lon="6.70381">
        <ele>2059</ele>
        <time>2025-06-22T11:18:25.499Z</time>
      </trkpt>
      <trkpt lat="44.17067" lon="6.70377">
        <ele>2059.2</ele>
        <time>2025-06-22T11:18:33Z</time>
      </trkpt>
      <trkpt lat="44.17066" lon="6.70369">
        <ele>2060.1</ele>
        <time>2025-06-22T11:19:25Z</time>
      </trkpt>
      <trkpt lat="44.17065" lon="6.70362">
        <ele>2060.9</ele>
        <time>2025-06-22T11:19:33.499Z</time>
      </trkpt>
      <trkpt lat="44.17064" lon="6.70356">
        <ele>2061.3</ele>
        <time>2025-06-22T11:19:42Z</time>
      </trkpt>
      <trkpt lat="44.17065" lon="6.70344">
        <ele>2062</ele>
        <time>2025-06-22T11:19:57Z</time>
      </trkpt>
      <trkpt lat="44.17065" lon="6.70337">
        <ele>2062.5</ele>
        <time>2025-06-22T11:20:04.000Z</time>
      </trkpt>
      <trkpt lat="44.17065" lon="6.7033">
        <ele>2062.9</ele>
        <time>2025-06-22T11:20:11Z</time>
      </trkpt>
      <trkpt lat="44.17064" lon="6.70323">
        <ele>2063.3</ele>
        <time>2025-06-22T11:20:17.999Z</time>
      </trkpt>
      <trkpt lat="44.17064" lon="6.70316">
        <ele>2063.8</ele>
        <time>2025-06-22T11:20:25Z</time>
      </trkpt>
      <trkpt lat="44.17064" lon="6.70309">
        <ele>2064.2</ele>
        <time>2025-06-22T11:20:32.000Z</time>
      </trkpt>
      <trkpt lat="44.17064" lon="6.70301">
        <ele>2064.7</ele>
        <time>2025-06-22T11:20:39Z</time>
      </trkpt>
      <trkpt lat="44.17064" lon="6.70294">
        <ele>2065.2</ele>
        <time>2025-06-22T11:20:45.000Z</time>
      </trkpt>
      <trkpt lat="44.17064" lon="6.70287">
        <ele>2065.8</ele>
        <time>2025-06-22T11:20:51Z</time>
      </trkpt>
      <trkpt lat="44.17062" lon="6.7028">
        <ele>2066.4</ele>
        <time>2025-06-22T11:20:56.999Z</time>
      </trkpt>
      <trkpt lat="44.1706" lon="6.70274">
        <ele>2067</ele>
        <time>2025-06-22T11:21:03Z</time>
      </trkpt>
      <trkpt lat="44.17057" lon="6.70264">
        <ele>2068</ele>
        <time>2025-06-22T11:21:31Z</time>
      </trkpt>
      <trkpt lat="44.17054" lon="6.70257">
        <ele>2068.4</ele>
        <time>2025-06-22T11:21:37.999Z</time>
      </trkpt>
      <trkpt lat="44.17051" lon="6.70251">
        <ele>2068.8</ele>
        <time>2025-06-22T11:21:45Z</time>
      </trkpt>
      <trkpt lat="44.17047" lon="6.70247">
        <ele>2069.1</ele>
        <time>2025-06-22T11:21:49.999Z</time>
      </trkpt>
      <trkpt lat="44.17043" lon="6.70242">
        <ele>2069.5</ele>
        <time>2025-06-22T11:21:55Z</time>
      </trkpt>
      <trkpt lat="44.17036" lon="6.70235">
        <ele>2070.1</ele>
        <time>2025-06-22T11:22:09Z</time>
      </trkpt>
      <trkpt lat="44.17035" lon="6.70228">
        <ele>2070.8</ele>
        <time>2025-06-22T11:22:14.999Z</time>
      </trkpt>
      <trkpt lat="44.17034" lon="6.70222">
        <ele>2071.5</ele>
        <time>2025-06-22T11:22:21Z</time>
      </trkpt>
      <trkpt lat="44.17035" lon="6.70215">
        <ele>2072.4</ele>
        <time>2025-06-22T11:22:28.000Z</time>
      </trkpt>
      <trkpt lat="44.17036" lon="6.70208">
        <ele>2073.3</ele>
        <time>2025-06-22T11:22:35Z</time>
      </trkpt>
      <trkpt lat="44.17039" lon="6.70202">
        <ele>2074.8</ele>
        <time>2025-06-22T11:23:02Z</time>
      </trkpt>
      <trkpt lat="44.17044" lon="6.70192">
        <ele>2077.1</ele>
        <time>2025-06-22T11:23:14Z</time>
      </trkpt>
      <trkpt lat="44.17044" lon="6.70185">
        <ele>2077.4</ele>
        <time>2025-06-22T11:23:21.000Z</time>
      </trkpt>
      <trkpt lat="44.17045" lon="6.70179">
        <ele>2077.7</ele>
        <time>2025-06-22T11:23:28Z</time>
      </trkpt>
      <trkpt lat="44.17045" lon="6.70167">
        <ele>2078.3</ele>
        <time>2025-06-22T11:23:44Z</time>
      </trkpt>
      <trkpt lat="44.17047" lon="6.70159">
        <ele>2078.6</ele>
        <time>2025-06-22T11:23:50.000Z</time>
      </trkpt>
      <trkpt lat="44.17048" lon="6.70152">
        <ele>2078.9</ele>
        <time>2025-06-22T11:23:56Z</time>
      </trkpt>
      <trkpt lat="44.17051" lon="6.70148">
        <ele>2079.9</ele>
        <time>2025-06-22T11:24:02.500Z</time>
      </trkpt>
      <trkpt lat="44.17055" lon="6.70143">
        <ele>2080.8</ele>
        <time>2025-06-22T11:24:09Z</time>
      </trkpt>
      <trkpt lat="44.17056" lon="6.70136">
        <ele>2081.2</ele>
        <time>2025-06-22T11:24:17.000Z</time>
      </trkpt>
      <trkpt lat="44.17058" lon="6.70129">
        <ele>2081.8</ele>
        <time>2025-06-22T11:24:25Z</time>
      </trkpt>
      <trkpt lat="44.17061" lon="6.70123">
        <ele>2082.6</ele>
        <time>2025-06-22T11:24:32.500Z</time>
      </trkpt>
      <trkpt lat="44.17064" lon="6.70117">
        <ele>2083.3</ele>
        <time>2025-06-22T11:24:40Z</time>
      </trkpt>
      <trkpt lat="44.17066" lon="6.70105">
        <ele>2083.8</ele>
        <time>2025-06-22T11:24:54Z</time>
      </trkpt>
      <trkpt lat="44.17069" lon="6.70099">
        <ele>2084.1</ele>
        <time>2025-06-22T11:25:00.500Z</time>
      </trkpt>
      <trkpt lat="44.17071" lon="6.70092">
        <ele>2084.4</ele>
        <time>2025-06-22T11:25:07Z</time>
      </trkpt>
      <trkpt lat="44.17077" lon="6.70083">
        <ele>2085.1</ele>
        <time>2025-06-22T11:25:18Z</time>
      </trkpt>
      <trkpt lat="44.1708" lon="6.70077">
        <ele>2085.5</ele>
        <time>2025-06-22T11:25:23.000Z</time>
      </trkpt>
      <trkpt lat="44.17082" lon="6.70072">
        <ele>2085.8</ele>
        <time>2025-06-22T11:25:28Z</time>
      </trkpt>
      <trkpt lat="44.1709" lon="6.70068">
        <ele>2085.9</ele>
        <time>2025-06-22T11:25:40Z</time>
      </trkpt>
      <trkpt lat="44.17095" lon="6.70065">
        <ele>2085.9</ele>
        <time>2025-06-22T11:25:55.500Z</time>
      </trkpt>
      <trkpt lat="44.171" lon="6.70063">
        <ele>2085.8</ele>
        <time>2025-06-22T11:26:11Z</time>
      </trkpt>
      <trkpt lat="44.17104" lon="6.70061">
        <ele>2085.9</ele>
        <time>2025-06-22T11:26:18.000Z</time>
      </trkpt>
      <trkpt lat="44.17109" lon="6.70059">
        <ele>2085.9</ele>
        <time>2025-06-22T11:26:25Z</time>
      </trkpt>
      <trkpt lat="44.17113" lon="6.70054">
        <ele>2086.3</ele>
        <time>2025-06-22T11:26:34.000Z</time>
      </trkpt>
      <trkpt lat="44.17116" lon="6.70049">
        <ele>2087.3</ele>
        <time>2025-06-22T11:26:43Z</time>
      </trkpt>
      <trkpt lat="44.17121" lon="6.70046">
        <ele>2087.6</ele>
        <time>2025-06-22T11:26:49.000Z</time>
      </trkpt>
      <trkpt lat="44.17126" lon="6.70043">
        <ele>2087.9</ele>
        <time>2025-06-22T11:26:55Z</time>
      </trkpt>
      <trkpt lat="44.17131" lon="6.70043">
        <ele>2087.7</ele>
        <time>2025-06-22T11:27:00.000Z</time>
      </trkpt>
      <trkpt lat="44.17136" lon="6.70043">
        <ele>2087.4</ele>
        <time>2025-06-22T11:27:05Z</time>
      </trkpt>
      <trkpt lat="44.17141" lon="6.70044">
        <ele>2087.1</ele>
        <time>2025-06-22T11:27:10.000Z</time>
      </trkpt>
      <trkpt lat="44.17146" lon="6.70045">
        <ele>2086.8</ele>
        <time>2025-06-22T11:27:15Z</time>
      </trkpt>
      <trkpt lat="44.17151" lon="6.70046">
        <ele>2086.6</ele>
        <time>2025-06-22T11:27:20.000Z</time>
      </trkpt>
      <trkpt lat="44.17156" lon="6.70046">
        <ele>2086.4</ele>
        <time>2025-06-22T11:27:25Z</time>
      </trkpt>
      <trkpt lat="44.17161" lon="6.70046">
        <ele>2086.5</ele>
        <time>2025-06-22T11:27:30.000Z</time>
      </trkpt>
      <trkpt lat="44.17166" lon="6.70045">
        <ele>2086.5</ele>
        <time>2025-06-22T11:27:35Z</time>
      </trkpt>
      <trkpt lat="44.17171" lon="6.70044">
        <ele>2086.5</ele>
        <time>2025-06-22T11:27:40.000Z</time>
      </trkpt>
      <trkpt lat="44.17176" lon="6.70042">
        <ele>2086.5</ele>
        <time>2025-06-22T11:27:45Z</time>
      </trkpt>
      <trkpt lat="44.17183" lon="6.70036">
        <ele>2086.6</ele>
        <time>2025-06-22T11:28:06Z</time>
      </trkpt>
      <trkpt lat="44.17187" lon="6.70032">
        <ele>2086.5</ele>
        <time>2025-06-22T11:28:16.500Z</time>
      </trkpt>
      <trkpt lat="44.17191" lon="6.70028">
        <ele>2086.3</ele>
        <time>2025-06-22T11:28:27Z</time>
      </trkpt>
      <trkpt lat="44.17195" lon="6.70024">
        <ele>2086.2</ele>
        <time>2025-06-22T11:28:35.000Z</time>
      </trkpt>
      <trkpt lat="44.17199" lon="6.7002">
        <ele>2086.2</ele>
        <time>2025-06-22T11:28:43Z</time>
      </trkpt>
      <trkpt lat="44.17203" lon="6.70017">
        <ele>2086.2</ele>
        <time>2025-06-22T11:28:49.000Z</time>
      </trkpt>
      <trkpt lat="44.17208" lon="6.70013">
        <ele>2086.1</ele>
        <time>2025-06-22T11:28:55Z</time>
      </trkpt>
      <trkpt lat="44.17212" lon="6.7001">
        <ele>2086</ele>
        <time>2025-06-22T11:29:00.500Z</time>
      </trkpt>
      <trkpt lat="44.17216" lon="6.70007">
        <ele>2086</ele>
        <time>2025-06-22T11:29:06Z</time>
      </trkpt>
      <trkpt lat="44.1722" lon="6.70003">
        <ele>2085.9</ele>
        <time>2025-06-22T11:29:11.500Z</time>
      </trkpt>
      <trkpt lat="44.17224" lon="6.7">
        <ele>2086.1</ele>
        <time>2025-06-22T11:29:17Z</time>
      </trkpt>
      <trkpt lat="44.17229" lon="6.69997">
        <ele>2086.4</ele>
        <time>2025-06-22T11:29:22.500Z</time>
      </trkpt>
      <trkpt lat="44.17233" lon="6.69994">
        <ele>2086.8</ele>
        <time>2025-06-22T11:29:28Z</time>
      </trkpt>
      <trkpt lat="44.17238" lon="6.69993">
        <ele>2087.1</ele>
        <time>2025-06-22T11:29:33.500Z</time>
      </trkpt>
      <trkpt lat="44.17243" lon="6.69992">
        <ele>2087.3</ele>
        <time>2025-06-22T11:29:39Z</time>
      </trkpt>
      <trkpt lat="44.17248" lon="6.69992">
        <ele>2087.5</ele>
        <time>2025-06-22T11:29:44.500Z</time>
      </trkpt>
      <trkpt lat="44.17253" lon="6.69992">
        <ele>2087.6</ele>
        <time>2025-06-22T11:29:50Z</time>
      </trkpt>
      <trkpt lat="44.17257" lon="6.69992">
        <ele>2087.5</ele>
        <time>2025-06-22T11:29:56.000Z</time>
      </trkpt>
      <trkpt lat="44.17262" lon="6.69993">
        <ele>2087.5</ele>
        <time>2025-06-22T11:30:02Z</time>
      </trkpt>
      <trkpt lat="44.17266" lon="6.69993">
        <ele>2087.5</ele>
        <time>2025-06-22T11:30:07.500Z</time>
      </trkpt>
      <trkpt lat="44.17271" lon="6.69994">
        <ele>2087.4</ele>
        <time>2025-06-22T11:30:13Z</time>
      </trkpt>
      <trkpt lat="44.17275" lon="6.69994">
        <ele>2087.4</ele>
        <time>2025-06-22T11:30:18.500Z</time>
      </trkpt>
      <trkpt lat="44.1728" lon="6.69994">
        <ele>2087.3</ele>
        <time>2025-06-22T11:30:24Z</time>
      </trkpt>
      <trkpt lat="44.17285" lon="6.69995">
        <ele>2087.1</ele>
        <time>2025-06-22T11:30:29.500Z</time>
      </trkpt>
      <trkpt lat="44.17289" lon="6.69996">
        <ele>2086.9</ele>
        <time>2025-06-22T11:30:35Z</time>
      </trkpt>
      <trkpt lat="44.17294" lon="6.69998">
        <ele>2086.6</ele>
        <time>2025-06-22T11:30:41.500Z</time>
      </trkpt>
      <trkpt lat="44.17298" lon="6.7">
        <ele>2086.3</ele>
        <time>2025-06-22T11:30:48Z</time>
      </trkpt>
      <trkpt lat="44.17301" lon="6.70001">
        <ele>2086.1</ele>
        <time>2025-06-22T11:32:05Z</time>
      </trkpt>
      <trkpt lat="44.17307" lon="6.7">
        <ele>2085.9</ele>
        <time>2025-06-22T11:32:43Z</time>
      </trkpt>
      <trkpt lat="44.17313" lon="6.69999">
        <ele>2085.6</ele>
        <time>2025-06-22T11:32:48.500Z</time>
      </trkpt>
      <trkpt lat="44.17318" lon="6.69998">
        <ele>2085.3</ele>
        <time>2025-06-22T11:32:54Z</time>
      </trkpt>
      <trkpt lat="44.17324" lon="6.69996">
        <ele>2085</ele>
        <time>2025-06-22T11:32:58.500Z</time>
      </trkpt>
      <trkpt lat="44.17329" lon="6.69995">
        <ele>2084.7</ele>
        <time>2025-06-22T11:33:03Z</time>
      </trkpt>
      <trkpt lat="44.17333" lon="6.69992">
        <ele>2084.7</ele>
        <time>2025-06-22T11:33:07.500Z</time>
      </trkpt>
      <trkpt lat="44.17337" lon="6.69988">
        <ele>2084.3</ele>
        <time>2025-06-22T11:33:12Z</time>
      </trkpt>
      <trkpt lat="44.17341" lon="6.69986">
        <ele>2083.8</ele>
        <time>2025-06-22T11:33:16.500Z</time>
      </trkpt>
      <trkpt lat="44.17345" lon="6.69983">
        <ele>2083.2</ele>
        <time>2025-06-22T11:33:21Z</time>
      </trkpt>
      <trkpt lat="44.1735" lon="6.6998">
        <ele>2082.6</ele>
        <time>2025-06-22T11:33:25.500Z</time>
      </trkpt>
      <trkpt lat="44.17354" lon="6.69977">
        <ele>2082</ele>
        <time>2025-06-22T11:33:30Z</time>
      </trkpt>
      <trkpt lat="44.17359" lon="6.69974">
        <ele>2081.4</ele>
        <time>2025-06-22T11:33:34.500Z</time>
      </trkpt>
      <trkpt lat="44.17363" lon="6.6997">
        <ele>2080.9</ele>
        <time>2025-06-22T11:33:39Z</time>
      </trkpt>
      <trkpt lat="44.17367" lon="6.69966">
        <ele>2080.6</ele>
        <time>2025-06-22T11:33:43.500Z</time>
      </trkpt>
      <trkpt lat="44.17371" lon="6.69962">
        <ele>2080.3</ele>
        <time>2025-06-22T11:33:48Z</time>
      </trkpt>
      <trkpt lat="44.17378" lon="6.69955">
        <ele>2079.9</ele>
        <time>2025-06-22T11:33:57Z</time>
      </trkpt>
      <trkpt lat="44.17385" lon="6.69948">
        <ele>2079.3</ele>
        <time>2025-06-22T11:34:06Z</time>
      </trkpt>
      <trkpt lat="44.17392" lon="6.69942">
        <ele>2079</ele>
        <time>2025-06-22T11:34:15Z</time>
      </trkpt>
      <trkpt lat="44.17397" lon="6.69939">
        <ele>2078.9</ele>
        <time>2025-06-22T11:34:20.000Z</time>
      </trkpt>
      <trkpt lat="44.17401" lon="6.69936">
        <ele>2078.8</ele>
        <time>2025-06-22T11:34:25Z</time>
      </trkpt>
      <trkpt lat="44.17406" lon="6.69933">
        <ele>2078.6</ele>
        <time>2025-06-22T11:34:30.000Z</time>
      </trkpt>
      <trkpt lat="44.1741" lon="6.6993">
        <ele>2078.5</ele>
        <time>2025-06-22T11:34:35Z</time>
      </trkpt>
      <trkpt lat="44.17415" lon="6.69927">
        <ele>2078.4</ele>
        <time>2025-06-22T11:34:40.000Z</time>
      </trkpt>
      <trkpt lat="44.17419" lon="6.69924">
        <ele>2078.3</ele>
        <time>2025-06-22T11:34:45Z</time>
      </trkpt>
      <trkpt lat="44.17423" lon="6.69921">
        <ele>2078</ele>
        <time>2025-06-22T11:34:50.000Z</time>
      </trkpt>
      <trkpt lat="44.17427" lon="6.69918">
        <ele>2077.8</ele>
        <time>2025-06-22T11:34:55Z</time>
      </trkpt>
      <trkpt lat="44.17432" lon="6.69915">
        <ele>2077.6</ele>
        <time>2025-06-22T11:35:00.000Z</time>
      </trkpt>
      <trkpt lat="44.17437" lon="6.69912">
        <ele>2077.5</ele>
        <time>2025-06-22T11:35:05Z</time>
      </trkpt>
      <trkpt lat="44.17441" lon="6.69908">
        <ele>2077.3</ele>
        <time>2025-06-22T11:35:10.000Z</time>
      </trkpt>
      <trkpt lat="44.17446" lon="6.69905">
        <ele>2077.1</ele>
        <time>2025-06-22T11:35:15Z</time>
      </trkpt>
      <trkpt lat="44.17452" lon="6.69897">
        <ele>2077.1</ele>
        <time>2025-06-22T11:35:25Z</time>
      </trkpt>
      <trkpt lat="44.17448" lon="6.69891">
        <ele>2078.2</ele>
        <time>2025-06-22T11:35:37Z</time>
      </trkpt>
      <trkpt lat="44.17451" lon="6.69886">
        <ele>2078.4</ele>
        <time>2025-06-22T11:35:42.500Z</time>
      </trkpt>
      <trkpt lat="44.17453" lon="6.6988">
        <ele>2078.5</ele>
        <time>2025-06-22T11:35:48Z</time>
      </trkpt>
      <trkpt lat="44.17461" lon="6.69873">
        <ele>2077.8</ele>
        <time>2025-06-22T11:35:58Z</time>
      </trkpt>
      <trkpt lat="44.1746" lon="6.69866">
        <ele>2078.2</ele>
        <time>2025-06-22T11:36:04.999Z</time>
      </trkpt>
      <trkpt lat="44.1746" lon="6.6986">
        <ele>2078.8</ele>
        <time>2025-06-22T11:36:12Z</time>
      </trkpt>
      <trkpt lat="44.17456" lon="6.69854">
        <ele>2080.1</ele>
        <time>2025-06-22T11:36:18.999Z</time>
      </trkpt>
      <trkpt lat="44.17452" lon="6.69848">
        <ele>2081.4</ele>
        <time>2025-06-22T11:36:26Z</time>
      </trkpt>
      <trkpt lat="44.1745" lon="6.69843">
        <ele>2082.4</ele>
        <time>2025-06-22T11:36:32.999Z</time>
      </trkpt>
      <trkpt lat="44.17447" lon="6.69837">
        <ele>2083.3</ele>
        <time>2025-06-22T11:36:40Z</time>
      </trkpt>
      <trkpt lat="44.17445" lon="6.69832">
        <ele>2084</ele>
        <time>2025-06-22T11:37:41Z</time>
      </trkpt>
      <trkpt lat="44.17444" lon="6.69826">
        <ele>2084.4</ele>
        <time>2025-06-22T11:37:47.999Z</time>
      </trkpt>
      <trkpt lat="44.17443" lon="6.69819">
        <ele>2084.8</ele>
        <time>2025-06-22T11:37:55Z</time>
      </trkpt>
      <trkpt lat="44.17445" lon="6.69813">
        <ele>2084.7</ele>
        <time>2025-06-22T11:38:00.500Z</time>
      </trkpt>
      <trkpt lat="44.17446" lon="6.69807">
        <ele>2085</ele>
        <time>2025-06-22T11:38:06Z</time>
      </trkpt>
      <trkpt lat="44.17454" lon="6.69801">
        <ele>2086.1</ele>
        <time>2025-06-22T11:38:17Z</time>
      </trkpt>
      <trkpt lat="44.17459" lon="6.69802">
        <ele>2086.2</ele>
        <time>2025-06-22T11:38:22.000Z</time>
      </trkpt>
      <trkpt lat="44.17463" lon="6.69803">
        <ele>2086.2</ele>
        <time>2025-06-22T11:38:27Z</time>
      </trkpt>
      <trkpt lat="44.17468" lon="6.69804">
        <ele>2086.1</ele>
        <time>2025-06-22T11:38:32.000Z</time>
      </trkpt>
      <trkpt lat="44.17472" lon="6.69806">
        <ele>2086</ele>
        <time>2025-06-22T11:38:37Z</time>
      </trkpt>
      <trkpt lat="44.17477" lon="6.69806">
        <ele>2085.5</ele>
        <time>2025-06-22T11:38:42.000Z</time>
      </trkpt>
      <trkpt lat="44.17481" lon="6.69807">
        <ele>2085</ele>
        <time>2025-06-22T11:38:47Z</time>
      </trkpt>
      <trkpt lat="44.17486" lon="6.69808">
        <ele>2084.6</ele>
        <time>2025-06-22T11:38:54.500Z</time>
      </trkpt>
      <trkpt lat="44.17491" lon="6.69808">
        <ele>2084.1</ele>
        <time>2025-06-22T11:39:02Z</time>
      </trkpt>
      <trkpt lat="44.17496" lon="6.69798">
        <ele>2085.3</ele>
        <time>2025-06-22T11:39:16Z</time>
      </trkpt>
      <trkpt lat="44.175" lon="6.69789">
        <ele>2086.3</ele>
        <time>2025-06-22T11:39:50Z</time>
      </trkpt>
      <trkpt lat="44.17501" lon="6.69789">
        <ele>2086.3</ele>
        <time>2025-06-22T11:41:46Z</time>
      </trkpt>
    </trkseg>
  </trk>
</gpx>